<?xml version="1.0" encoding="UTF-8" standalone="no" ?>
<gpx xmlns="http://www.topografix.com/GPX/1/1" xmlns:xsi="http://www.w3.org/2001/XMLSchema-instance" xsi:schemaLocation="http://www.topografix.com/GPX/1/1 http://www.topografix.com/GPX/1/1/gpx.xsd" version="1.1" creator="VisuGPX - https://www.visugpx.com">
  <metadata>
    <name>Larajasse </name>
    <desc><![CDATA[Jolie boucle !]]></desc>
  </metadata>
  <trk>
    <name><![CDATA[Larajasse]]></name>
    <trkseg>
      <trkpt lat="45.61408" lon="4.50518">
        <ele>671.6</ele>
        <time>2012-04-09T08:34:34Z</time>
      </trkpt>
      <trkpt lat="45.61408" lon="4.50518">
        <ele>665</ele>
        <time>2012-04-09T08:34:35Z</time>
      </trkpt>
      <trkpt lat="45.61421" lon="4.5051">
        <ele>676</ele>
        <time>2012-04-09T08:34:47Z</time>
      </trkpt>
      <trkpt lat="45.61435" lon="4.50511">
        <ele>677</ele>
        <time>2012-04-09T08:34:58Z</time>
      </trkpt>
      <trkpt lat="45.61449" lon="4.50513">
        <ele>678</ele>
        <time>2012-04-09T08:35:07Z</time>
      </trkpt>
      <trkpt lat="45.61464" lon="4.50515">
        <ele>678</ele>
        <time>2012-04-09T08:35:14Z</time>
      </trkpt>
      <trkpt lat="45.61477" lon="4.50518">
        <ele>677</ele>
        <time>2012-04-09T08:35:22Z</time>
      </trkpt>
      <trkpt lat="45.61478" lon="4.50499">
        <ele>671</ele>
        <time>2012-04-09T08:35:34Z</time>
      </trkpt>
      <trkpt lat="45.61476" lon="4.50478">
        <ele>671</ele>
        <time>2012-04-09T08:35:44Z</time>
      </trkpt>
      <trkpt lat="45.61478" lon="4.50458">
        <ele>671</ele>
        <time>2012-04-09T08:35:51Z</time>
      </trkpt>
      <trkpt lat="45.61473" lon="4.50438">
        <ele>674</ele>
        <time>2012-04-09T08:36:00Z</time>
      </trkpt>
      <trkpt lat="45.61473" lon="4.50417">
        <ele>676</ele>
        <time>2012-04-09T08:36:12Z</time>
      </trkpt>
      <trkpt lat="45.61468" lon="4.50398">
        <ele>676</ele>
        <time>2012-04-09T08:36:19Z</time>
      </trkpt>
      <trkpt lat="45.61463" lon="4.50379">
        <ele>677</ele>
        <time>2012-04-09T08:36:30Z</time>
      </trkpt>
      <trkpt lat="45.61456" lon="4.50362">
        <ele>674</ele>
        <time>2012-04-09T08:36:47Z</time>
      </trkpt>
      <trkpt lat="45.61449" lon="4.50344">
        <ele>676</ele>
        <time>2012-04-09T08:37:04Z</time>
      </trkpt>
      <trkpt lat="45.61449" lon="4.50324">
        <ele>678</ele>
        <time>2012-04-09T08:37:11Z</time>
      </trkpt>
      <trkpt lat="45.61444" lon="4.50305">
        <ele>680</ele>
        <time>2012-04-09T08:37:23Z</time>
      </trkpt>
      <trkpt lat="45.61446" lon="4.50286">
        <ele>683</ele>
        <time>2012-04-09T08:37:33Z</time>
      </trkpt>
      <trkpt lat="45.61447" lon="4.50266">
        <ele>683</ele>
        <time>2012-04-09T08:37:44Z</time>
      </trkpt>
      <trkpt lat="45.6145" lon="4.50247">
        <ele>686</ele>
        <time>2012-04-09T08:37:56Z</time>
      </trkpt>
      <trkpt lat="45.61448" lon="4.50227">
        <ele>690</ele>
        <time>2012-04-09T08:38:11Z</time>
      </trkpt>
      <trkpt lat="45.61449" lon="4.50208">
        <ele>697</ele>
        <time>2012-04-09T08:38:25Z</time>
      </trkpt>
      <trkpt lat="45.61449" lon="4.50188">
        <ele>694</ele>
        <time>2012-04-09T08:38:37Z</time>
      </trkpt>
      <trkpt lat="45.61448" lon="4.50167">
        <ele>695</ele>
        <time>2012-04-09T08:38:46Z</time>
      </trkpt>
      <trkpt lat="45.61457" lon="4.50152">
        <ele>698</ele>
        <time>2012-04-09T08:38:52Z</time>
      </trkpt>
      <trkpt lat="45.61448" lon="4.50137">
        <ele>698</ele>
        <time>2012-04-09T08:39:01Z</time>
      </trkpt>
      <trkpt lat="45.61444" lon="4.50118">
        <ele>700</ele>
        <time>2012-04-09T08:39:12Z</time>
      </trkpt>
      <trkpt lat="45.61437" lon="4.50101">
        <ele>704</ele>
        <time>2012-04-09T08:39:24Z</time>
      </trkpt>
      <trkpt lat="45.61427" lon="4.50086">
        <ele>703</ele>
        <time>2012-04-09T08:39:36Z</time>
      </trkpt>
      <trkpt lat="45.6142" lon="4.50069">
        <ele>706</ele>
        <time>2012-04-09T08:39:45Z</time>
      </trkpt>
      <trkpt lat="45.61415" lon="4.5005">
        <ele>708</ele>
        <time>2012-04-09T08:39:53Z</time>
      </trkpt>
      <trkpt lat="45.61406" lon="4.50036">
        <ele>709</ele>
        <time>2012-04-09T08:40:06Z</time>
      </trkpt>
      <trkpt lat="45.61399" lon="4.50016">
        <ele>713</ele>
        <time>2012-04-09T08:40:13Z</time>
      </trkpt>
      <trkpt lat="45.61386" lon="4.50011">
        <ele>714</ele>
        <time>2012-04-09T08:40:22Z</time>
      </trkpt>
      <trkpt lat="45.61377" lon="4.50026">
        <ele>711</ele>
        <time>2012-04-09T08:40:30Z</time>
      </trkpt>
      <trkpt lat="45.61361" lon="4.50028">
        <ele>711</ele>
        <time>2012-04-09T08:40:39Z</time>
      </trkpt>
      <trkpt lat="45.61347" lon="4.50027">
        <ele>711</ele>
        <time>2012-04-09T08:40:46Z</time>
      </trkpt>
      <trkpt lat="45.61333" lon="4.50034">
        <ele>708</ele>
        <time>2012-04-09T08:40:55Z</time>
      </trkpt>
      <trkpt lat="45.61319" lon="4.50041">
        <ele>709</ele>
        <time>2012-04-09T08:41:04Z</time>
      </trkpt>
      <trkpt lat="45.61305" lon="4.50044">
        <ele>709</ele>
        <time>2012-04-09T08:41:12Z</time>
      </trkpt>
      <trkpt lat="45.61291" lon="4.50044">
        <ele>708</ele>
        <time>2012-04-09T08:41:20Z</time>
      </trkpt>
      <trkpt lat="45.61277" lon="4.50041">
        <ele>704</ele>
        <time>2012-04-09T08:41:33Z</time>
      </trkpt>
      <trkpt lat="45.61263" lon="4.50037">
        <ele>705</ele>
        <time>2012-04-09T08:41:45Z</time>
      </trkpt>
      <trkpt lat="45.6125" lon="4.50032">
        <ele>708</ele>
        <time>2012-04-09T08:41:53Z</time>
      </trkpt>
      <trkpt lat="45.61239" lon="4.50018">
        <ele>707</ele>
        <time>2012-04-09T08:42:04Z</time>
      </trkpt>
      <trkpt lat="45.61227" lon="4.50007">
        <ele>704</ele>
        <time>2012-04-09T08:42:11Z</time>
      </trkpt>
      <trkpt lat="45.61216" lon="4.49997">
        <ele>701</ele>
        <time>2012-04-09T08:42:19Z</time>
      </trkpt>
      <trkpt lat="45.61204" lon="4.49986">
        <ele>699</ele>
        <time>2012-04-09T08:42:27Z</time>
      </trkpt>
      <trkpt lat="45.61191" lon="4.49976">
        <ele>696</ele>
        <time>2012-04-09T08:42:35Z</time>
      </trkpt>
      <trkpt lat="45.61181" lon="4.4996">
        <ele>691</ele>
        <time>2012-04-09T08:42:43Z</time>
      </trkpt>
      <trkpt lat="45.61171" lon="4.49944">
        <ele>693</ele>
        <time>2012-04-09T08:42:51Z</time>
      </trkpt>
      <trkpt lat="45.6116" lon="4.49931">
        <ele>694</ele>
        <time>2012-04-09T08:43:01Z</time>
      </trkpt>
      <trkpt lat="45.6115" lon="4.49916">
        <ele>695</ele>
        <time>2012-04-09T08:43:09Z</time>
      </trkpt>
      <trkpt lat="45.61148" lon="4.49895">
        <ele>693</ele>
        <time>2012-04-09T08:43:20Z</time>
      </trkpt>
      <trkpt lat="45.61153" lon="4.49875">
        <ele>691</ele>
        <time>2012-04-09T08:43:28Z</time>
      </trkpt>
      <trkpt lat="45.61158" lon="4.49856">
        <ele>690</ele>
        <time>2012-04-09T08:43:36Z</time>
      </trkpt>
      <trkpt lat="45.61159" lon="4.49835">
        <ele>684</ele>
        <time>2012-04-09T08:43:46Z</time>
      </trkpt>
      <trkpt lat="45.61157" lon="4.49815">
        <ele>681</ele>
        <time>2012-04-09T08:43:53Z</time>
      </trkpt>
      <trkpt lat="45.61153" lon="4.49796">
        <ele>677</ele>
        <time>2012-04-09T08:44:01Z</time>
      </trkpt>
      <trkpt lat="45.61151" lon="4.49776">
        <ele>678</ele>
        <time>2012-04-09T08:44:10Z</time>
      </trkpt>
      <trkpt lat="45.61149" lon="4.49755">
        <ele>679</ele>
        <time>2012-04-09T08:44:19Z</time>
      </trkpt>
      <trkpt lat="45.61146" lon="4.49734">
        <ele>672</ele>
        <time>2012-04-09T08:44:28Z</time>
      </trkpt>
      <trkpt lat="45.61144" lon="4.49715">
        <ele>671</ele>
        <time>2012-04-09T08:44:36Z</time>
      </trkpt>
      <trkpt lat="45.61146" lon="4.49695">
        <ele>671</ele>
        <time>2012-04-09T08:44:48Z</time>
      </trkpt>
      <trkpt lat="45.61137" lon="4.4968">
        <ele>668</ele>
        <time>2012-04-09T08:44:55Z</time>
      </trkpt>
      <trkpt lat="45.61134" lon="4.49662">
        <ele>669</ele>
        <time>2012-04-09T08:45:01Z</time>
      </trkpt>
      <trkpt lat="45.6113" lon="4.49643">
        <ele>669</ele>
        <time>2012-04-09T08:45:10Z</time>
      </trkpt>
      <trkpt lat="45.61125" lon="4.49624">
        <ele>663</ele>
        <time>2012-04-09T08:45:19Z</time>
      </trkpt>
      <trkpt lat="45.61123" lon="4.49603">
        <ele>666</ele>
        <time>2012-04-09T08:45:27Z</time>
      </trkpt>
      <trkpt lat="45.61121" lon="4.49582">
        <ele>665</ele>
        <time>2012-04-09T08:45:36Z</time>
      </trkpt>
      <trkpt lat="45.61117" lon="4.49563">
        <ele>662</ele>
        <time>2012-04-09T08:45:44Z</time>
      </trkpt>
      <trkpt lat="45.61117" lon="4.49544">
        <ele>661</ele>
        <time>2012-04-09T08:45:52Z</time>
      </trkpt>
      <trkpt lat="45.61112" lon="4.49526">
        <ele>658</ele>
        <time>2012-04-09T08:46:01Z</time>
      </trkpt>
      <trkpt lat="45.61111" lon="4.49505">
        <ele>658</ele>
        <time>2012-04-09T08:46:11Z</time>
      </trkpt>
      <trkpt lat="45.61109" lon="4.49483">
        <ele>655</ele>
        <time>2012-04-09T08:46:18Z</time>
      </trkpt>
      <trkpt lat="45.61108" lon="4.49461">
        <ele>652</ele>
        <time>2012-04-09T08:46:23Z</time>
      </trkpt>
      <trkpt lat="45.61105" lon="4.49442">
        <ele>650</ele>
        <time>2012-04-09T08:46:30Z</time>
      </trkpt>
      <trkpt lat="45.611" lon="4.49423">
        <ele>642</ele>
        <time>2012-04-09T08:46:39Z</time>
      </trkpt>
      <trkpt lat="45.61099" lon="4.49402">
        <ele>640</ele>
        <time>2012-04-09T08:46:52Z</time>
      </trkpt>
      <trkpt lat="45.61093" lon="4.49382">
        <ele>639</ele>
        <time>2012-04-09T08:47:04Z</time>
      </trkpt>
      <trkpt lat="45.61094" lon="4.49363">
        <ele>638</ele>
        <time>2012-04-09T08:47:10Z</time>
      </trkpt>
      <trkpt lat="45.61096" lon="4.49342">
        <ele>637</ele>
        <time>2012-04-09T08:47:19Z</time>
      </trkpt>
      <trkpt lat="45.61096" lon="4.49322">
        <ele>631</ele>
        <time>2012-04-09T08:47:27Z</time>
      </trkpt>
      <trkpt lat="45.61097" lon="4.49303">
        <ele>623</ele>
        <time>2012-04-09T08:47:42Z</time>
      </trkpt>
      <trkpt lat="45.61106" lon="4.49287">
        <ele>619</ele>
        <time>2012-04-09T08:47:51Z</time>
      </trkpt>
      <trkpt lat="45.61111" lon="4.49268">
        <ele>622</ele>
        <time>2012-04-09T08:48:01Z</time>
      </trkpt>
      <trkpt lat="45.61108" lon="4.49249">
        <ele>616</ele>
        <time>2012-04-09T08:48:15Z</time>
      </trkpt>
      <trkpt lat="45.61099" lon="4.49232">
        <ele>611</ele>
        <time>2012-04-09T08:48:29Z</time>
      </trkpt>
      <trkpt lat="45.61094" lon="4.49213">
        <ele>610</ele>
        <time>2012-04-09T08:48:36Z</time>
      </trkpt>
      <trkpt lat="45.6109" lon="4.49193">
        <ele>614</ele>
        <time>2012-04-09T08:48:44Z</time>
      </trkpt>
      <trkpt lat="45.61084" lon="4.49175">
        <ele>616</ele>
        <time>2012-04-09T08:48:51Z</time>
      </trkpt>
      <trkpt lat="45.61085" lon="4.49155">
        <ele>616</ele>
        <time>2012-04-09T08:49:03Z</time>
      </trkpt>
      <trkpt lat="45.6109" lon="4.49136">
        <ele>611</ele>
        <time>2012-04-09T08:49:19Z</time>
      </trkpt>
      <trkpt lat="45.61097" lon="4.49117">
        <ele>611</ele>
        <time>2012-04-09T08:49:28Z</time>
      </trkpt>
      <trkpt lat="45.611" lon="4.49097">
        <ele>612</ele>
        <time>2012-04-09T08:49:35Z</time>
      </trkpt>
      <trkpt lat="45.61097" lon="4.49077">
        <ele>610</ele>
        <time>2012-04-09T08:49:43Z</time>
      </trkpt>
      <trkpt lat="45.61094" lon="4.49058">
        <ele>608</ele>
        <time>2012-04-09T08:49:54Z</time>
      </trkpt>
      <trkpt lat="45.61089" lon="4.49039">
        <ele>606</ele>
        <time>2012-04-09T08:50:05Z</time>
      </trkpt>
      <trkpt lat="45.61088" lon="4.49016">
        <ele>609</ele>
        <time>2012-04-09T08:50:11Z</time>
      </trkpt>
      <trkpt lat="45.61084" lon="4.48996">
        <ele>607</ele>
        <time>2012-04-09T08:50:18Z</time>
      </trkpt>
      <trkpt lat="45.61086" lon="4.48975">
        <ele>605</ele>
        <time>2012-04-09T08:50:25Z</time>
      </trkpt>
      <trkpt lat="45.61086" lon="4.48954">
        <ele>609</ele>
        <time>2012-04-09T08:50:36Z</time>
      </trkpt>
      <trkpt lat="45.61087" lon="4.48934">
        <ele>612</ele>
        <time>2012-04-09T08:50:46Z</time>
      </trkpt>
      <trkpt lat="45.61087" lon="4.48914">
        <ele>614</ele>
        <time>2012-04-09T08:50:59Z</time>
      </trkpt>
      <trkpt lat="45.61088" lon="4.48893">
        <ele>615</ele>
        <time>2012-04-09T08:51:10Z</time>
      </trkpt>
      <trkpt lat="45.61087" lon="4.48874">
        <ele>614</ele>
        <time>2012-04-09T08:51:18Z</time>
      </trkpt>
      <trkpt lat="45.61087" lon="4.48854">
        <ele>613</ele>
        <time>2012-04-09T08:51:26Z</time>
      </trkpt>
      <trkpt lat="45.61085" lon="4.48834">
        <ele>608</ele>
        <time>2012-04-09T08:51:36Z</time>
      </trkpt>
      <trkpt lat="45.61084" lon="4.48814">
        <ele>612</ele>
        <time>2012-04-09T08:51:47Z</time>
      </trkpt>
      <trkpt lat="45.61082" lon="4.48794">
        <ele>612</ele>
        <time>2012-04-09T08:51:55Z</time>
      </trkpt>
      <trkpt lat="45.61081" lon="4.48773">
        <ele>613</ele>
        <time>2012-04-09T08:52:09Z</time>
      </trkpt>
      <trkpt lat="45.61084" lon="4.48755">
        <ele>615</ele>
        <time>2012-04-09T08:52:17Z</time>
      </trkpt>
      <trkpt lat="45.61087" lon="4.48735">
        <ele>618</ele>
        <time>2012-04-09T08:52:29Z</time>
      </trkpt>
      <trkpt lat="45.61097" lon="4.48719">
        <ele>621</ele>
        <time>2012-04-09T08:52:38Z</time>
      </trkpt>
      <trkpt lat="45.61108" lon="4.48707">
        <ele>625</ele>
        <time>2012-04-09T08:52:48Z</time>
      </trkpt>
      <trkpt lat="45.61121" lon="4.487">
        <ele>626</ele>
        <time>2012-04-09T08:53:00Z</time>
      </trkpt>
      <trkpt lat="45.61128" lon="4.48684">
        <ele>623</ele>
        <time>2012-04-09T08:53:14Z</time>
      </trkpt>
      <trkpt lat="45.61134" lon="4.48665">
        <ele>626</ele>
        <time>2012-04-09T08:53:24Z</time>
      </trkpt>
      <trkpt lat="45.61145" lon="4.48651">
        <ele>631</ele>
        <time>2012-04-09T08:53:36Z</time>
      </trkpt>
      <trkpt lat="45.61149" lon="4.48622">
        <ele>631</ele>
        <time>2012-04-09T08:53:55Z</time>
      </trkpt>
      <trkpt lat="45.61151" lon="4.486">
        <ele>631</ele>
        <time>2012-04-09T08:54:02Z</time>
      </trkpt>
      <trkpt lat="45.61153" lon="4.4858">
        <ele>632</ele>
        <time>2012-04-09T08:54:13Z</time>
      </trkpt>
      <trkpt lat="45.6115" lon="4.4856">
        <ele>634</ele>
        <time>2012-04-09T08:54:21Z</time>
      </trkpt>
      <trkpt lat="45.61147" lon="4.48541">
        <ele>632</ele>
        <time>2012-04-09T08:54:28Z</time>
      </trkpt>
      <trkpt lat="45.61153" lon="4.48522">
        <ele>632</ele>
        <time>2012-04-09T08:54:35Z</time>
      </trkpt>
      <trkpt lat="45.61153" lon="4.48502">
        <ele>631</ele>
        <time>2012-04-09T08:54:42Z</time>
      </trkpt>
      <trkpt lat="45.61141" lon="4.48494">
        <ele>628</ele>
        <time>2012-04-09T08:54:48Z</time>
      </trkpt>
      <trkpt lat="45.6113" lon="4.48479">
        <ele>628</ele>
        <time>2012-04-09T08:54:57Z</time>
      </trkpt>
      <trkpt lat="45.61125" lon="4.48461">
        <ele>631</ele>
        <time>2012-04-09T08:55:08Z</time>
      </trkpt>
      <trkpt lat="45.61115" lon="4.48444">
        <ele>628</ele>
        <time>2012-04-09T08:55:19Z</time>
      </trkpt>
      <trkpt lat="45.611" lon="4.48447">
        <ele>631</ele>
        <time>2012-04-09T08:55:27Z</time>
      </trkpt>
      <trkpt lat="45.61087" lon="4.48439">
        <ele>630</ele>
        <time>2012-04-09T08:55:36Z</time>
      </trkpt>
      <trkpt lat="45.61073" lon="4.48443">
        <ele>631</ele>
        <time>2012-04-09T08:55:43Z</time>
      </trkpt>
      <trkpt lat="45.61059" lon="4.48445">
        <ele>629</ele>
        <time>2012-04-09T08:55:53Z</time>
      </trkpt>
      <trkpt lat="45.61045" lon="4.48444">
        <ele>630</ele>
        <time>2012-04-09T08:56:02Z</time>
      </trkpt>
      <trkpt lat="45.61031" lon="4.48445">
        <ele>629</ele>
        <time>2012-04-09T08:56:11Z</time>
      </trkpt>
      <trkpt lat="45.61016" lon="4.48445">
        <ele>626</ele>
        <time>2012-04-09T08:56:20Z</time>
      </trkpt>
      <trkpt lat="45.61002" lon="4.48441">
        <ele>631</ele>
        <time>2012-04-09T08:56:34Z</time>
      </trkpt>
      <trkpt lat="45.60989" lon="4.48441">
        <ele>635</ele>
        <time>2012-04-09T08:56:42Z</time>
      </trkpt>
      <trkpt lat="45.60975" lon="4.48442">
        <ele>635</ele>
        <time>2012-04-09T08:56:51Z</time>
      </trkpt>
      <trkpt lat="45.60962" lon="4.48453">
        <ele>634</ele>
        <time>2012-04-09T08:57:01Z</time>
      </trkpt>
      <trkpt lat="45.60947" lon="4.48456">
        <ele>636</ele>
        <time>2012-04-09T08:57:10Z</time>
      </trkpt>
      <trkpt lat="45.60933" lon="4.48462">
        <ele>633</ele>
        <time>2012-04-09T08:57:21Z</time>
      </trkpt>
      <trkpt lat="45.60922" lon="4.48476">
        <ele>634</ele>
        <time>2012-04-09T08:57:31Z</time>
      </trkpt>
      <trkpt lat="45.60913" lon="4.48492">
        <ele>633</ele>
        <time>2012-04-09T08:57:40Z</time>
      </trkpt>
      <trkpt lat="45.60908" lon="4.48511">
        <ele>637</ele>
        <time>2012-04-09T08:57:49Z</time>
      </trkpt>
      <trkpt lat="45.60898" lon="4.48525">
        <ele>636</ele>
        <time>2012-04-09T08:57:58Z</time>
      </trkpt>
      <trkpt lat="45.60892" lon="4.48543">
        <ele>645</ele>
        <time>2012-04-09T08:58:09Z</time>
      </trkpt>
      <trkpt lat="45.6088" lon="4.48557">
        <ele>644</ele>
        <time>2012-04-09T08:58:20Z</time>
      </trkpt>
      <trkpt lat="45.60871" lon="4.48572">
        <ele>643</ele>
        <time>2012-04-09T08:58:31Z</time>
      </trkpt>
      <trkpt lat="45.60859" lon="4.48583">
        <ele>649</ele>
        <time>2012-04-09T08:58:40Z</time>
      </trkpt>
      <trkpt lat="45.60852" lon="4.48599">
        <ele>651</ele>
        <time>2012-04-09T08:58:49Z</time>
      </trkpt>
      <trkpt lat="45.60843" lon="4.48616">
        <ele>654</ele>
        <time>2012-04-09T08:58:59Z</time>
      </trkpt>
      <trkpt lat="45.60836" lon="4.48634">
        <ele>656</ele>
        <time>2012-04-09T08:59:08Z</time>
      </trkpt>
      <trkpt lat="45.60829" lon="4.48652">
        <ele>647</ele>
        <time>2012-04-09T08:59:21Z</time>
      </trkpt>
      <trkpt lat="45.60822" lon="4.48669">
        <ele>650</ele>
        <time>2012-04-09T08:59:34Z</time>
      </trkpt>
      <trkpt lat="45.60809" lon="4.48679">
        <ele>659</ele>
        <time>2012-04-09T08:59:45Z</time>
      </trkpt>
      <trkpt lat="45.60796" lon="4.48689">
        <ele>661</ele>
        <time>2012-04-09T08:59:56Z</time>
      </trkpt>
      <trkpt lat="45.60782" lon="4.48694">
        <ele>661</ele>
        <time>2012-04-09T09:00:09Z</time>
      </trkpt>
      <trkpt lat="45.60774" lon="4.48711">
        <ele>657</ele>
        <time>2012-04-09T09:00:17Z</time>
      </trkpt>
      <trkpt lat="45.60762" lon="4.4872">
        <ele>663</ele>
        <time>2012-04-09T09:00:25Z</time>
      </trkpt>
      <trkpt lat="45.60748" lon="4.48721">
        <ele>662</ele>
        <time>2012-04-09T09:00:37Z</time>
      </trkpt>
      <trkpt lat="45.60734" lon="4.48725">
        <ele>664</ele>
        <time>2012-04-09T09:00:44Z</time>
      </trkpt>
      <trkpt lat="45.6072" lon="4.48732">
        <ele>665</ele>
        <time>2012-04-09T09:00:56Z</time>
      </trkpt>
      <trkpt lat="45.60706" lon="4.48733">
        <ele>666</ele>
        <time>2012-04-09T09:01:07Z</time>
      </trkpt>
      <trkpt lat="45.60696" lon="4.48747">
        <ele>667</ele>
        <time>2012-04-09T09:01:16Z</time>
      </trkpt>
      <trkpt lat="45.60684" lon="4.48755">
        <ele>665</ele>
        <time>2012-04-09T09:01:28Z</time>
      </trkpt>
      <trkpt lat="45.6067" lon="4.48761">
        <ele>671</ele>
        <time>2012-04-09T09:01:38Z</time>
      </trkpt>
      <trkpt lat="45.60659" lon="4.48772">
        <ele>673</ele>
        <time>2012-04-09T09:01:47Z</time>
      </trkpt>
      <trkpt lat="45.60646" lon="4.4878">
        <ele>677</ele>
        <time>2012-04-09T09:01:59Z</time>
      </trkpt>
      <trkpt lat="45.60634" lon="4.48791">
        <ele>679</ele>
        <time>2012-04-09T09:02:08Z</time>
      </trkpt>
      <trkpt lat="45.60621" lon="4.48799">
        <ele>681</ele>
        <time>2012-04-09T09:02:27Z</time>
      </trkpt>
      <trkpt lat="45.60611" lon="4.48815">
        <ele>683</ele>
        <time>2012-04-09T09:02:42Z</time>
      </trkpt>
      <trkpt lat="45.60598" lon="4.4882">
        <ele>687</ele>
        <time>2012-04-09T09:02:59Z</time>
      </trkpt>
      <trkpt lat="45.60589" lon="4.48835">
        <ele>693</ele>
        <time>2012-04-09T09:03:10Z</time>
      </trkpt>
      <trkpt lat="45.60576" lon="4.48846">
        <ele>697</ele>
        <time>2012-04-09T09:03:21Z</time>
      </trkpt>
      <trkpt lat="45.60565" lon="4.48857">
        <ele>702</ele>
        <time>2012-04-09T09:03:31Z</time>
      </trkpt>
      <trkpt lat="45.60552" lon="4.48868">
        <ele>706</ele>
        <time>2012-04-09T09:03:43Z</time>
      </trkpt>
      <trkpt lat="45.6054" lon="4.48878">
        <ele>706</ele>
        <time>2012-04-09T09:03:56Z</time>
      </trkpt>
      <trkpt lat="45.60527" lon="4.48884">
        <ele>707</ele>
        <time>2012-04-09T09:04:05Z</time>
      </trkpt>
      <trkpt lat="45.60513" lon="4.48888">
        <ele>704</ele>
        <time>2012-04-09T09:04:18Z</time>
      </trkpt>
      <trkpt lat="45.60498" lon="4.48888">
        <ele>702</ele>
        <time>2012-04-09T09:04:29Z</time>
      </trkpt>
      <trkpt lat="45.60484" lon="4.4889">
        <ele>707</ele>
        <time>2012-04-09T09:04:42Z</time>
      </trkpt>
      <trkpt lat="45.60471" lon="4.4888">
        <ele>707</ele>
        <time>2012-04-09T09:04:51Z</time>
      </trkpt>
      <trkpt lat="45.60457" lon="4.48875">
        <ele>707</ele>
        <time>2012-04-09T09:05:02Z</time>
      </trkpt>
      <trkpt lat="45.60442" lon="4.48875">
        <ele>710</ele>
        <time>2012-04-09T09:05:14Z</time>
      </trkpt>
      <trkpt lat="45.60429" lon="4.48877">
        <ele>713</ele>
        <time>2012-04-09T09:05:29Z</time>
      </trkpt>
      <trkpt lat="45.60416" lon="4.48869">
        <ele>713</ele>
        <time>2012-04-09T09:05:38Z</time>
      </trkpt>
      <trkpt lat="45.60402" lon="4.48875">
        <ele>716</ele>
        <time>2012-04-09T09:05:49Z</time>
      </trkpt>
      <trkpt lat="45.60388" lon="4.48877">
        <ele>716</ele>
        <time>2012-04-09T09:06:02Z</time>
      </trkpt>
      <trkpt lat="45.60375" lon="4.4888">
        <ele>721</ele>
        <time>2012-04-09T09:06:21Z</time>
      </trkpt>
      <trkpt lat="45.60361" lon="4.48882">
        <ele>725</ele>
        <time>2012-04-09T09:06:30Z</time>
      </trkpt>
      <trkpt lat="45.60349" lon="4.48892">
        <ele>729</ele>
        <time>2012-04-09T09:06:41Z</time>
      </trkpt>
      <trkpt lat="45.60335" lon="4.48897">
        <ele>728</ele>
        <time>2012-04-09T09:06:58Z</time>
      </trkpt>
      <trkpt lat="45.60321" lon="4.48903">
        <ele>735</ele>
        <time>2012-04-09T09:07:06Z</time>
      </trkpt>
      <trkpt lat="45.60307" lon="4.48906">
        <ele>738</ele>
        <time>2012-04-09T09:07:16Z</time>
      </trkpt>
      <trkpt lat="45.60294" lon="4.48914">
        <ele>740</ele>
        <time>2012-04-09T09:07:27Z</time>
      </trkpt>
      <trkpt lat="45.60282" lon="4.48921">
        <ele>740</ele>
        <time>2012-04-09T09:07:40Z</time>
      </trkpt>
      <trkpt lat="45.60269" lon="4.48929">
        <ele>745</ele>
        <time>2012-04-09T09:07:56Z</time>
      </trkpt>
      <trkpt lat="45.60269" lon="4.48929">
        <ele>730</ele>
        <time>2012-04-09T09:08:01Z</time>
      </trkpt>
      <trkpt lat="45.60269" lon="4.48929">
        <ele>730</ele>
        <time>2012-04-09T09:10:49Z</time>
      </trkpt>
      <trkpt lat="45.60269" lon="4.48932">
        <ele>733</ele>
        <time>2012-04-09T09:10:52Z</time>
      </trkpt>
      <trkpt lat="45.60239" lon="4.48944">
        <ele>745</ele>
        <time>2012-04-09T09:11:03Z</time>
      </trkpt>
      <trkpt lat="45.60227" lon="4.48955">
        <ele>744</ele>
        <time>2012-04-09T09:11:12Z</time>
      </trkpt>
      <trkpt lat="45.60213" lon="4.48962">
        <ele>745</ele>
        <time>2012-04-09T09:11:22Z</time>
      </trkpt>
      <trkpt lat="45.60199" lon="4.48969">
        <ele>746</ele>
        <time>2012-04-09T09:11:32Z</time>
      </trkpt>
      <trkpt lat="45.60186" lon="4.48972">
        <ele>746</ele>
        <time>2012-04-09T09:11:43Z</time>
      </trkpt>
      <trkpt lat="45.60172" lon="4.48975">
        <ele>747</ele>
        <time>2012-04-09T09:11:53Z</time>
      </trkpt>
      <trkpt lat="45.60158" lon="4.48981">
        <ele>748</ele>
        <time>2012-04-09T09:12:03Z</time>
      </trkpt>
      <trkpt lat="45.60144" lon="4.48983">
        <ele>753</ele>
        <time>2012-04-09T09:12:17Z</time>
      </trkpt>
      <trkpt lat="45.60137" lon="4.49">
        <ele>754</ele>
        <time>2012-04-09T09:12:22Z</time>
      </trkpt>
      <trkpt lat="45.60129" lon="4.49017">
        <ele>755</ele>
        <time>2012-04-09T09:12:32Z</time>
      </trkpt>
      <trkpt lat="45.60121" lon="4.49033">
        <ele>756</ele>
        <time>2012-04-09T09:12:43Z</time>
      </trkpt>
      <trkpt lat="45.60114" lon="4.4905">
        <ele>754</ele>
        <time>2012-04-09T09:12:56Z</time>
      </trkpt>
      <trkpt lat="45.60104" lon="4.49064">
        <ele>755</ele>
        <time>2012-04-09T09:13:04Z</time>
      </trkpt>
      <trkpt lat="45.60093" lon="4.49078">
        <ele>757</ele>
        <time>2012-04-09T09:13:13Z</time>
      </trkpt>
      <trkpt lat="45.60082" lon="4.4909">
        <ele>759</ele>
        <time>2012-04-09T09:13:30Z</time>
      </trkpt>
      <trkpt lat="45.6007" lon="4.49102">
        <ele>757</ele>
        <time>2012-04-09T09:13:40Z</time>
      </trkpt>
      <trkpt lat="45.60058" lon="4.49115">
        <ele>757</ele>
        <time>2012-04-09T09:13:46Z</time>
      </trkpt>
      <trkpt lat="45.60045" lon="4.49113">
        <ele>768</ele>
        <time>2012-04-09T09:14:01Z</time>
      </trkpt>
      <trkpt lat="45.6003" lon="4.49118">
        <ele>766</ele>
        <time>2012-04-09T09:14:15Z</time>
      </trkpt>
      <trkpt lat="45.60016" lon="4.49124">
        <ele>775</ele>
        <time>2012-04-09T09:14:27Z</time>
      </trkpt>
      <trkpt lat="45.60002" lon="4.49122">
        <ele>776</ele>
        <time>2012-04-09T09:14:41Z</time>
      </trkpt>
      <trkpt lat="45.59989" lon="4.49119">
        <ele>771</ele>
        <time>2012-04-09T09:14:53Z</time>
      </trkpt>
      <trkpt lat="45.59982" lon="4.49102">
        <ele>771</ele>
        <time>2012-04-09T09:15:00Z</time>
      </trkpt>
      <trkpt lat="45.5997" lon="4.49091">
        <ele>772</ele>
        <time>2012-04-09T09:15:11Z</time>
      </trkpt>
      <trkpt lat="45.59959" lon="4.49102">
        <ele>775</ele>
        <time>2012-04-09T09:15:25Z</time>
      </trkpt>
      <trkpt lat="45.5995" lon="4.49085">
        <ele>778</ele>
        <time>2012-04-09T09:15:33Z</time>
      </trkpt>
      <trkpt lat="45.59939" lon="4.49074">
        <ele>780</ele>
        <time>2012-04-09T09:15:42Z</time>
      </trkpt>
      <trkpt lat="45.59925" lon="4.49068">
        <ele>778</ele>
        <time>2012-04-09T09:15:50Z</time>
      </trkpt>
      <trkpt lat="45.59912" lon="4.49062">
        <ele>780</ele>
        <time>2012-04-09T09:16:00Z</time>
      </trkpt>
      <trkpt lat="45.59901" lon="4.49052">
        <ele>777</ele>
        <time>2012-04-09T09:16:17Z</time>
      </trkpt>
      <trkpt lat="45.59889" lon="4.49039">
        <ele>781</ele>
        <time>2012-04-09T09:16:25Z</time>
      </trkpt>
      <trkpt lat="45.59875" lon="4.49035">
        <ele>784</ele>
        <time>2012-04-09T09:16:35Z</time>
      </trkpt>
      <trkpt lat="45.59862" lon="4.49026">
        <ele>783</ele>
        <time>2012-04-09T09:16:45Z</time>
      </trkpt>
      <trkpt lat="45.59848" lon="4.49027">
        <ele>782</ele>
        <time>2012-04-09T09:16:55Z</time>
      </trkpt>
      <trkpt lat="45.59836" lon="4.49015">
        <ele>786</ele>
        <time>2012-04-09T09:17:07Z</time>
      </trkpt>
      <trkpt lat="45.59826" lon="4.4903">
        <ele>786</ele>
        <time>2012-04-09T09:17:14Z</time>
      </trkpt>
      <trkpt lat="45.59813" lon="4.49024">
        <ele>790</ele>
        <time>2012-04-09T09:17:32Z</time>
      </trkpt>
      <trkpt lat="45.59799" lon="4.49028">
        <ele>793</ele>
        <time>2012-04-09T09:17:46Z</time>
      </trkpt>
      <trkpt lat="45.59785" lon="4.4903">
        <ele>793</ele>
        <time>2012-04-09T09:17:58Z</time>
      </trkpt>
      <trkpt lat="45.59771" lon="4.49026">
        <ele>797</ele>
        <time>2012-04-09T09:18:05Z</time>
      </trkpt>
      <trkpt lat="45.59759" lon="4.49034">
        <ele>796</ele>
        <time>2012-04-09T09:18:15Z</time>
      </trkpt>
      <trkpt lat="45.59745" lon="4.49037">
        <ele>794</ele>
        <time>2012-04-09T09:18:25Z</time>
      </trkpt>
      <trkpt lat="45.59731" lon="4.49045">
        <ele>793</ele>
        <time>2012-04-09T09:18:33Z</time>
      </trkpt>
      <trkpt lat="45.59718" lon="4.49045">
        <ele>793</ele>
        <time>2012-04-09T09:18:40Z</time>
      </trkpt>
      <trkpt lat="45.59705" lon="4.4905">
        <ele>794</ele>
        <time>2012-04-09T09:18:46Z</time>
      </trkpt>
      <trkpt lat="45.59692" lon="4.49061">
        <ele>791</ele>
        <time>2012-04-09T09:18:56Z</time>
      </trkpt>
      <trkpt lat="45.59597" lon="4.49098">
        <ele>791</ele>
        <time>2012-04-09T09:20:08Z</time>
      </trkpt>
      <trkpt lat="45.59584" lon="4.49105">
        <ele>794</ele>
        <time>2012-04-09T09:20:19Z</time>
      </trkpt>
      <trkpt lat="45.59571" lon="4.49112">
        <ele>795</ele>
        <time>2012-04-09T09:20:28Z</time>
      </trkpt>
      <trkpt lat="45.59557" lon="4.49118">
        <ele>799</ele>
        <time>2012-04-09T09:20:36Z</time>
      </trkpt>
      <trkpt lat="45.59543" lon="4.49122">
        <ele>801</ele>
        <time>2012-04-09T09:20:47Z</time>
      </trkpt>
      <trkpt lat="45.59529" lon="4.49123">
        <ele>803</ele>
        <time>2012-04-09T09:20:57Z</time>
      </trkpt>
      <trkpt lat="45.59517" lon="4.49133">
        <ele>803</ele>
        <time>2012-04-09T09:21:09Z</time>
      </trkpt>
      <trkpt lat="45.59504" lon="4.4913">
        <ele>802</ele>
        <time>2012-04-09T09:21:18Z</time>
      </trkpt>
      <trkpt lat="45.59488" lon="4.49108">
        <ele>805</ele>
        <time>2012-04-09T09:21:24Z</time>
      </trkpt>
      <trkpt lat="45.59473" lon="4.49112">
        <ele>807</ele>
        <time>2012-04-09T09:21:37Z</time>
      </trkpt>
      <trkpt lat="45.59459" lon="4.49112">
        <ele>809</ele>
        <time>2012-04-09T09:21:47Z</time>
      </trkpt>
      <trkpt lat="45.59597" lon="4.49098">
        <ele>791</ele>
        <time>2012-04-09T09:20:08Z</time>
      </trkpt>
      <trkpt lat="45.59445" lon="4.49116">
        <ele>803</ele>
        <time>2012-04-09T09:21:58Z</time>
      </trkpt>
      <trkpt lat="45.59434" lon="4.49126">
        <ele>800</ele>
        <time>2012-04-09T09:22:11Z</time>
      </trkpt>
      <trkpt lat="45.59584" lon="4.49105">
        <ele>794</ele>
        <time>2012-04-09T09:20:19Z</time>
      </trkpt>
      <trkpt lat="45.5942" lon="4.49125">
        <ele>807</ele>
        <time>2012-04-09T09:22:25Z</time>
      </trkpt>
      <trkpt lat="45.59406" lon="4.49132">
        <ele>803</ele>
        <time>2012-04-09T09:22:34Z</time>
      </trkpt>
      <trkpt lat="45.59571" lon="4.49112">
        <ele>795</ele>
        <time>2012-04-09T09:20:28Z</time>
      </trkpt>
      <trkpt lat="45.59392" lon="4.49129">
        <ele>807</ele>
        <time>2012-04-09T09:22:43Z</time>
      </trkpt>
      <trkpt lat="45.59557" lon="4.49118">
        <ele>799</ele>
        <time>2012-04-09T09:20:36Z</time>
      </trkpt>
      <trkpt lat="45.59543" lon="4.49122">
        <ele>801</ele>
        <time>2012-04-09T09:20:47Z</time>
      </trkpt>
      <trkpt lat="45.59529" lon="4.49123">
        <ele>803</ele>
        <time>2012-04-09T09:20:57Z</time>
      </trkpt>
      <trkpt lat="45.59517" lon="4.49133">
        <ele>803</ele>
        <time>2012-04-09T09:21:09Z</time>
      </trkpt>
      <trkpt lat="45.59504" lon="4.4913">
        <ele>802</ele>
        <time>2012-04-09T09:21:18Z</time>
      </trkpt>
      <trkpt lat="45.59488" lon="4.49108">
        <ele>805</ele>
        <time>2012-04-09T09:21:24Z</time>
      </trkpt>
      <trkpt lat="45.59473" lon="4.49112">
        <ele>807</ele>
        <time>2012-04-09T09:21:37Z</time>
      </trkpt>
      <trkpt lat="45.59459" lon="4.49112">
        <ele>809</ele>
        <time>2012-04-09T09:21:47Z</time>
      </trkpt>
      <trkpt lat="45.59445" lon="4.49116">
        <ele>803</ele>
        <time>2012-04-09T09:21:58Z</time>
      </trkpt>
      <trkpt lat="45.59434" lon="4.49126">
        <ele>800</ele>
        <time>2012-04-09T09:22:11Z</time>
      </trkpt>
      <trkpt lat="45.5942" lon="4.49125">
        <ele>807</ele>
        <time>2012-04-09T09:22:25Z</time>
      </trkpt>
      <trkpt lat="45.59406" lon="4.49132">
        <ele>803</ele>
        <time>2012-04-09T09:22:34Z</time>
      </trkpt>
      <trkpt lat="45.59392" lon="4.49129">
        <ele>807</ele>
        <time>2012-04-09T09:22:43Z</time>
      </trkpt>
      <trkpt lat="45.59378" lon="4.49126">
        <ele>810</ele>
        <time>2012-04-09T09:23:00Z</time>
      </trkpt>
      <trkpt lat="45.59364" lon="4.49121">
        <ele>810</ele>
        <time>2012-04-09T09:23:08Z</time>
      </trkpt>
      <trkpt lat="45.59351" lon="4.49119">
        <ele>808</ele>
        <time>2012-04-09T09:23:16Z</time>
      </trkpt>
      <trkpt lat="45.59336" lon="4.49123">
        <ele>808</ele>
        <time>2012-04-09T09:23:24Z</time>
      </trkpt>
      <trkpt lat="45.59322" lon="4.49119">
        <ele>808</ele>
        <time>2012-04-09T09:23:33Z</time>
      </trkpt>
      <trkpt lat="45.59306" lon="4.49116">
        <ele>815</ele>
        <time>2012-04-09T09:23:39Z</time>
      </trkpt>
      <trkpt lat="45.59292" lon="4.49124">
        <ele>809</ele>
        <time>2012-04-09T09:23:51Z</time>
      </trkpt>
      <trkpt lat="45.59517" lon="4.49133">
        <ele>803</ele>
        <time>2012-04-09T09:21:09Z</time>
      </trkpt>
      <trkpt lat="45.59504" lon="4.4913">
        <ele>802</ele>
        <time>2012-04-09T09:21:18Z</time>
      </trkpt>
      <trkpt lat="45.59488" lon="4.49108">
        <ele>805</ele>
        <time>2012-04-09T09:21:24Z</time>
      </trkpt>
      <trkpt lat="45.59473" lon="4.49112">
        <ele>807</ele>
        <time>2012-04-09T09:21:37Z</time>
      </trkpt>
      <trkpt lat="45.59459" lon="4.49112">
        <ele>809</ele>
        <time>2012-04-09T09:21:47Z</time>
      </trkpt>
      <trkpt lat="45.59445" lon="4.49116">
        <ele>803</ele>
        <time>2012-04-09T09:21:58Z</time>
      </trkpt>
      <trkpt lat="45.59279" lon="4.4913">
        <ele>809</ele>
        <time>2012-04-09T09:23:59Z</time>
      </trkpt>
      <trkpt lat="45.59269" lon="4.49144">
        <ele>807</ele>
        <time>2012-04-09T09:24:10Z</time>
      </trkpt>
      <trkpt lat="45.5926" lon="4.4916">
        <ele>807</ele>
        <time>2012-04-09T09:24:20Z</time>
      </trkpt>
      <trkpt lat="45.59251" lon="4.49176">
        <ele>806</ele>
        <time>2012-04-09T09:24:30Z</time>
      </trkpt>
      <trkpt lat="45.59254" lon="4.49195">
        <ele>804</ele>
        <time>2012-04-09T09:24:40Z</time>
      </trkpt>
      <trkpt lat="45.59254" lon="4.49214">
        <ele>803</ele>
        <time>2012-04-09T09:24:48Z</time>
      </trkpt>
      <trkpt lat="45.59251" lon="4.49234">
        <ele>804</ele>
        <time>2012-04-09T09:24:58Z</time>
      </trkpt>
      <trkpt lat="45.59243" lon="4.49253">
        <ele>805</ele>
        <time>2012-04-09T09:25:07Z</time>
      </trkpt>
      <trkpt lat="45.5924" lon="4.49273">
        <ele>805</ele>
        <time>2012-04-09T09:25:16Z</time>
      </trkpt>
      <trkpt lat="45.59236" lon="4.49292">
        <ele>805</ele>
        <time>2012-04-09T09:25:25Z</time>
      </trkpt>
      <trkpt lat="45.59246" lon="4.49309">
        <ele>799</ele>
        <time>2012-04-09T09:25:38Z</time>
      </trkpt>
      <trkpt lat="45.59244" lon="4.49331">
        <ele>799</ele>
        <time>2012-04-09T09:25:45Z</time>
      </trkpt>
      <trkpt lat="45.59242" lon="4.4935">
        <ele>802</ele>
        <time>2012-04-09T09:25:53Z</time>
      </trkpt>
      <trkpt lat="45.59247" lon="4.4937">
        <ele>803</ele>
        <time>2012-04-09T09:26:05Z</time>
      </trkpt>
      <trkpt lat="45.59254" lon="4.49387">
        <ele>805</ele>
        <time>2012-04-09T09:26:13Z</time>
      </trkpt>
      <trkpt lat="45.59255" lon="4.49407">
        <ele>804</ele>
        <time>2012-04-09T09:26:21Z</time>
      </trkpt>
      <trkpt lat="45.59262" lon="4.49425">
        <ele>810</ele>
        <time>2012-04-09T09:26:29Z</time>
      </trkpt>
      <trkpt lat="45.59271" lon="4.4944">
        <ele>809</ele>
        <time>2012-04-09T09:26:40Z</time>
      </trkpt>
      <trkpt lat="45.59277" lon="4.49459">
        <ele>812</ele>
        <time>2012-04-09T09:26:50Z</time>
      </trkpt>
      <trkpt lat="45.59282" lon="4.49479">
        <ele>812</ele>
        <time>2012-04-09T09:26:59Z</time>
      </trkpt>
      <trkpt lat="45.5929" lon="4.49495">
        <ele>811</ele>
        <time>2012-04-09T09:27:09Z</time>
      </trkpt>
      <trkpt lat="45.59298" lon="4.49513">
        <ele>810</ele>
        <time>2012-04-09T09:27:18Z</time>
      </trkpt>
      <trkpt lat="45.59305" lon="4.49532">
        <ele>809</ele>
        <time>2012-04-09T09:27:29Z</time>
      </trkpt>
      <trkpt lat="45.59307" lon="4.49552">
        <ele>810</ele>
        <time>2012-04-09T09:27:37Z</time>
      </trkpt>
      <trkpt lat="45.59312" lon="4.49571">
        <ele>807</ele>
        <time>2012-04-09T09:27:51Z</time>
      </trkpt>
      <trkpt lat="45.59313" lon="4.49592">
        <ele>807</ele>
        <time>2012-04-09T09:28:00Z</time>
      </trkpt>
      <trkpt lat="45.5931" lon="4.49611">
        <ele>808</ele>
        <time>2012-04-09T09:28:13Z</time>
      </trkpt>
      <trkpt lat="45.59306" lon="4.49629">
        <ele>812</ele>
        <time>2012-04-09T09:28:26Z</time>
      </trkpt>
      <trkpt lat="45.59303" lon="4.49648">
        <ele>813</ele>
        <time>2012-04-09T09:28:38Z</time>
      </trkpt>
      <trkpt lat="45.59302" lon="4.49668">
        <ele>814</ele>
        <time>2012-04-09T09:28:48Z</time>
      </trkpt>
      <trkpt lat="45.59306" lon="4.49687">
        <ele>821</ele>
        <time>2012-04-09T09:29:00Z</time>
      </trkpt>
      <trkpt lat="45.59315" lon="4.49701">
        <ele>831</ele>
        <time>2012-04-09T09:29:11Z</time>
      </trkpt>
      <trkpt lat="45.59325" lon="4.49716">
        <ele>830</ele>
        <time>2012-04-09T09:29:24Z</time>
      </trkpt>
      <trkpt lat="45.59336" lon="4.4973">
        <ele>831</ele>
        <time>2012-04-09T09:29:33Z</time>
      </trkpt>
      <trkpt lat="45.59345" lon="4.49747">
        <ele>832</ele>
        <time>2012-04-09T09:29:41Z</time>
      </trkpt>
      <trkpt lat="45.59354" lon="4.49762">
        <ele>835</ele>
        <time>2012-04-09T09:29:55Z</time>
      </trkpt>
      <trkpt lat="45.59364" lon="4.49776">
        <ele>838</ele>
        <time>2012-04-09T09:30:04Z</time>
      </trkpt>
      <trkpt lat="45.59377" lon="4.49787">
        <ele>836</ele>
        <time>2012-04-09T09:30:14Z</time>
      </trkpt>
      <trkpt lat="45.59389" lon="4.49799">
        <ele>835</ele>
        <time>2012-04-09T09:30:25Z</time>
      </trkpt>
      <trkpt lat="45.59402" lon="4.49806">
        <ele>831</ele>
        <time>2012-04-09T09:30:35Z</time>
      </trkpt>
      <trkpt lat="45.59416" lon="4.49809">
        <ele>833</ele>
        <time>2012-04-09T09:30:46Z</time>
      </trkpt>
      <trkpt lat="45.59429" lon="4.49816">
        <ele>834</ele>
        <time>2012-04-09T09:30:54Z</time>
      </trkpt>
      <trkpt lat="45.59441" lon="4.49828">
        <ele>834</ele>
        <time>2012-04-09T09:31:07Z</time>
      </trkpt>
      <trkpt lat="45.59452" lon="4.4984">
        <ele>833</ele>
        <time>2012-04-09T09:31:14Z</time>
      </trkpt>
      <trkpt lat="45.5944" lon="4.49851">
        <ele>836</ele>
        <time>2012-04-09T09:31:37Z</time>
      </trkpt>
      <trkpt lat="45.59425" lon="4.49852">
        <ele>832</ele>
        <time>2012-04-09T09:31:50Z</time>
      </trkpt>
      <trkpt lat="45.5941" lon="4.49857">
        <ele>842</ele>
        <time>2012-04-09T09:32:00Z</time>
      </trkpt>
      <trkpt lat="45.59397" lon="4.49866">
        <ele>845</ele>
        <time>2012-04-09T09:32:07Z</time>
      </trkpt>
      <trkpt lat="45.59387" lon="4.49878">
        <ele>845</ele>
        <time>2012-04-09T09:32:19Z</time>
      </trkpt>
      <trkpt lat="45.59377" lon="4.49891">
        <ele>847</ele>
        <time>2012-04-09T09:32:32Z</time>
      </trkpt>
      <trkpt lat="45.59366" lon="4.49907">
        <ele>839</ele>
        <time>2012-04-09T09:32:47Z</time>
      </trkpt>
      <trkpt lat="45.59356" lon="4.4992">
        <ele>834</ele>
        <time>2012-04-09T09:33:04Z</time>
      </trkpt>
      <trkpt lat="45.59345" lon="4.49933">
        <ele>837</ele>
        <time>2012-04-09T09:33:20Z</time>
      </trkpt>
      <trkpt lat="45.59331" lon="4.49933">
        <ele>842</ele>
        <time>2012-04-09T09:33:31Z</time>
      </trkpt>
      <trkpt lat="45.59317" lon="4.49936">
        <ele>847</ele>
        <time>2012-04-09T09:33:44Z</time>
      </trkpt>
      <trkpt lat="45.59304" lon="4.49941">
        <ele>847</ele>
        <time>2012-04-09T09:33:50Z</time>
      </trkpt>
      <trkpt lat="45.59296" lon="4.4996">
        <ele>849</ele>
        <time>2012-04-09T09:34:00Z</time>
      </trkpt>
      <trkpt lat="45.59283" lon="4.49966">
        <ele>850</ele>
        <time>2012-04-09T09:34:10Z</time>
      </trkpt>
      <trkpt lat="45.5927" lon="4.49973">
        <ele>855</ele>
        <time>2012-04-09T09:34:29Z</time>
      </trkpt>
      <trkpt lat="45.59261" lon="4.49989">
        <ele>855</ele>
        <time>2012-04-09T09:34:38Z</time>
      </trkpt>
      <trkpt lat="45.59247" lon="4.49998">
        <ele>856</ele>
        <time>2012-04-09T09:34:48Z</time>
      </trkpt>
      <trkpt lat="45.59231" lon="4.50001">
        <ele>852</ele>
        <time>2012-04-09T09:34:56Z</time>
      </trkpt>
      <trkpt lat="45.59223" lon="4.50018">
        <ele>846</ele>
        <time>2012-04-09T09:35:08Z</time>
      </trkpt>
      <trkpt lat="45.5921" lon="4.50023">
        <ele>852</ele>
        <time>2012-04-09T09:35:16Z</time>
      </trkpt>
      <trkpt lat="45.59195" lon="4.50021">
        <ele>856</ele>
        <time>2012-04-09T09:35:24Z</time>
      </trkpt>
      <trkpt lat="45.5918" lon="4.50017">
        <ele>853</ele>
        <time>2012-04-09T09:35:35Z</time>
      </trkpt>
      <trkpt lat="45.59168" lon="4.50029">
        <ele>856</ele>
        <time>2012-04-09T09:35:50Z</time>
      </trkpt>
      <trkpt lat="45.59159" lon="4.50043">
        <ele>854</ele>
        <time>2012-04-09T09:36:00Z</time>
      </trkpt>
      <trkpt lat="45.59153" lon="4.50061">
        <ele>852</ele>
        <time>2012-04-09T09:36:09Z</time>
      </trkpt>
      <trkpt lat="45.59144" lon="4.50075">
        <ele>854</ele>
        <time>2012-04-09T09:36:20Z</time>
      </trkpt>
      <trkpt lat="45.5913" lon="4.50078">
        <ele>855</ele>
        <time>2012-04-09T09:36:28Z</time>
      </trkpt>
      <trkpt lat="45.59117" lon="4.50077">
        <ele>864</ele>
        <time>2012-04-09T09:36:38Z</time>
      </trkpt>
      <trkpt lat="45.59105" lon="4.50086">
        <ele>862</ele>
        <time>2012-04-09T09:36:47Z</time>
      </trkpt>
      <trkpt lat="45.59091" lon="4.50094">
        <ele>868</ele>
        <time>2012-04-09T09:36:57Z</time>
      </trkpt>
      <trkpt lat="45.59078" lon="4.50098">
        <ele>874</ele>
        <time>2012-04-09T09:37:03Z</time>
      </trkpt>
      <trkpt lat="45.59067" lon="4.50111">
        <ele>869</ele>
        <time>2012-04-09T09:37:15Z</time>
      </trkpt>
      <trkpt lat="45.59057" lon="4.50124">
        <ele>872</ele>
        <time>2012-04-09T09:37:29Z</time>
      </trkpt>
      <trkpt lat="45.59047" lon="4.50138">
        <ele>880</ele>
        <time>2012-04-09T09:37:37Z</time>
      </trkpt>
      <trkpt lat="45.5904" lon="4.50156">
        <ele>877</ele>
        <time>2012-04-09T09:37:51Z</time>
      </trkpt>
      <trkpt lat="45.59029" lon="4.50169">
        <ele>879</ele>
        <time>2012-04-09T09:38:00Z</time>
      </trkpt>
      <trkpt lat="45.59023" lon="4.50187">
        <ele>881</ele>
        <time>2012-04-09T09:38:15Z</time>
      </trkpt>
      <trkpt lat="45.59014" lon="4.50202">
        <ele>883</ele>
        <time>2012-04-09T09:38:27Z</time>
      </trkpt>
      <trkpt lat="45.59003" lon="4.50213">
        <ele>883</ele>
        <time>2012-04-09T09:38:37Z</time>
      </trkpt>
      <trkpt lat="45.58989" lon="4.50216">
        <ele>884</ele>
        <time>2012-04-09T09:38:46Z</time>
      </trkpt>
      <trkpt lat="45.58976" lon="4.50222">
        <ele>885</ele>
        <time>2012-04-09T09:38:54Z</time>
      </trkpt>
      <trkpt lat="45.58968" lon="4.50239">
        <ele>885</ele>
        <time>2012-04-09T09:39:04Z</time>
      </trkpt>
      <trkpt lat="45.58955" lon="4.50256">
        <ele>882</ele>
        <time>2012-04-09T09:39:23Z</time>
      </trkpt>
      <trkpt lat="45.58945" lon="4.5027">
        <ele>889</ele>
        <time>2012-04-09T09:39:34Z</time>
      </trkpt>
      <trkpt lat="45.58932" lon="4.50283">
        <ele>888</ele>
        <time>2012-04-09T09:39:39Z</time>
      </trkpt>
      <trkpt lat="45.58923" lon="4.50298">
        <ele>887</ele>
        <time>2012-04-09T09:39:46Z</time>
      </trkpt>
      <trkpt lat="45.58913" lon="4.50313">
        <ele>889</ele>
        <time>2012-04-09T09:39:53Z</time>
      </trkpt>
      <trkpt lat="45.589" lon="4.50321">
        <ele>892</ele>
        <time>2012-04-09T09:40:02Z</time>
      </trkpt>
      <trkpt lat="45.58887" lon="4.50333">
        <ele>893</ele>
        <time>2012-04-09T09:40:13Z</time>
      </trkpt>
      <trkpt lat="45.58883" lon="4.50352">
        <ele>894</ele>
        <time>2012-04-09T09:40:20Z</time>
      </trkpt>
      <trkpt lat="45.58871" lon="4.50363">
        <ele>899</ele>
        <time>2012-04-09T09:40:32Z</time>
      </trkpt>
      <trkpt lat="45.5886" lon="4.50377">
        <ele>897</ele>
        <time>2012-04-09T09:40:43Z</time>
      </trkpt>
      <trkpt lat="45.58852" lon="4.50396">
        <ele>899</ele>
        <time>2012-04-09T09:40:52Z</time>
      </trkpt>
      <trkpt lat="45.58842" lon="4.50409">
        <ele>899</ele>
        <time>2012-04-09T09:41:00Z</time>
      </trkpt>
      <trkpt lat="45.58849" lon="4.50426">
        <ele>903</ele>
        <time>2012-04-09T09:41:07Z</time>
      </trkpt>
      <trkpt lat="45.58843" lon="4.50445">
        <ele>905</ele>
        <time>2012-04-09T09:41:20Z</time>
      </trkpt>
      <trkpt lat="45.58839" lon="4.50465">
        <ele>906</ele>
        <time>2012-04-09T09:41:29Z</time>
      </trkpt>
      <trkpt lat="45.58836" lon="4.50484">
        <ele>905</ele>
        <time>2012-04-09T09:41:41Z</time>
      </trkpt>
      <trkpt lat="45.58837" lon="4.50503">
        <ele>906</ele>
        <time>2012-04-09T09:41:50Z</time>
      </trkpt>
      <trkpt lat="45.58832" lon="4.50522">
        <ele>910</ele>
        <time>2012-04-09T09:41:57Z</time>
      </trkpt>
      <trkpt lat="45.58827" lon="4.50541">
        <ele>912</ele>
        <time>2012-04-09T09:42:04Z</time>
      </trkpt>
      <trkpt lat="45.5883" lon="4.50562">
        <ele>913</ele>
        <time>2012-04-09T09:42:20Z</time>
      </trkpt>
      <trkpt lat="45.5882" lon="4.50577">
        <ele>912</ele>
        <time>2012-04-09T09:42:25Z</time>
      </trkpt>
      <trkpt lat="45.58809" lon="4.50588">
        <ele>911</ele>
        <time>2012-04-09T09:42:33Z</time>
      </trkpt>
      <trkpt lat="45.58806" lon="4.5061">
        <ele>912</ele>
        <time>2012-04-09T09:42:41Z</time>
      </trkpt>
      <trkpt lat="45.58806" lon="4.5061">
        <ele>901</ele>
        <time>2012-04-09T09:42:46Z</time>
      </trkpt>
      <trkpt lat="45.58806" lon="4.5061">
        <ele>901</ele>
        <time>2012-04-09T09:47:08Z</time>
      </trkpt>
      <trkpt lat="45.58798" lon="4.50641">
        <ele>916</ele>
        <time>2012-04-09T09:47:11Z</time>
      </trkpt>
      <trkpt lat="45.58791" lon="4.50658">
        <ele>907</ele>
        <time>2012-04-09T09:47:25Z</time>
      </trkpt>
      <trkpt lat="45.58783" lon="4.50676">
        <ele>904</ele>
        <time>2012-04-09T09:47:35Z</time>
      </trkpt>
      <trkpt lat="45.58777" lon="4.50693">
        <ele>905</ele>
        <time>2012-04-09T09:47:44Z</time>
      </trkpt>
      <trkpt lat="45.58773" lon="4.50713">
        <ele>910</ele>
        <time>2012-04-09T09:47:52Z</time>
      </trkpt>
      <trkpt lat="45.58769" lon="4.50732">
        <ele>905</ele>
        <time>2012-04-09T09:48:01Z</time>
      </trkpt>
      <trkpt lat="45.58767" lon="4.50751">
        <ele>904</ele>
        <time>2012-04-09T09:48:09Z</time>
      </trkpt>
      <trkpt lat="45.58758" lon="4.50768">
        <ele>901</ele>
        <time>2012-04-09T09:48:27Z</time>
      </trkpt>
      <trkpt lat="45.58749" lon="4.50783">
        <ele>899</ele>
        <time>2012-04-09T09:48:33Z</time>
      </trkpt>
      <trkpt lat="45.58741" lon="4.508">
        <ele>897</ele>
        <time>2012-04-09T09:48:42Z</time>
      </trkpt>
      <trkpt lat="45.58734" lon="4.50817">
        <ele>892</ele>
        <time>2012-04-09T09:48:59Z</time>
      </trkpt>
      <trkpt lat="45.58723" lon="4.50827">
        <ele>894</ele>
        <time>2012-04-09T09:49:04Z</time>
      </trkpt>
      <trkpt lat="45.58712" lon="4.50842">
        <ele>895</ele>
        <time>2012-04-09T09:49:10Z</time>
      </trkpt>
      <trkpt lat="45.58712" lon="4.50863">
        <ele>899</ele>
        <time>2012-04-09T09:50:26Z</time>
      </trkpt>
      <trkpt lat="45.58709" lon="4.50884">
        <ele>897</ele>
        <time>2012-04-09T09:50:34Z</time>
      </trkpt>
      <trkpt lat="45.58701" lon="4.50902">
        <ele>893</ele>
        <time>2012-04-09T09:50:44Z</time>
      </trkpt>
      <trkpt lat="45.58693" lon="4.50919">
        <ele>894</ele>
        <time>2012-04-09T09:50:54Z</time>
      </trkpt>
      <trkpt lat="45.58688" lon="4.50937">
        <ele>892</ele>
        <time>2012-04-09T09:51:03Z</time>
      </trkpt>
      <trkpt lat="45.58678" lon="4.50952">
        <ele>892</ele>
        <time>2012-04-09T09:51:10Z</time>
      </trkpt>
      <trkpt lat="45.58665" lon="4.50953">
        <ele>891</ele>
        <time>2012-04-09T09:51:16Z</time>
      </trkpt>
      <trkpt lat="45.58653" lon="4.50963">
        <ele>890</ele>
        <time>2012-04-09T09:51:24Z</time>
      </trkpt>
      <trkpt lat="45.58652" lon="4.50982">
        <ele>891</ele>
        <time>2012-04-09T09:51:33Z</time>
      </trkpt>
      <trkpt lat="45.58648" lon="4.51002">
        <ele>889</ele>
        <time>2012-04-09T09:51:41Z</time>
      </trkpt>
      <trkpt lat="45.58639" lon="4.51018">
        <ele>885</ele>
        <time>2012-04-09T09:51:52Z</time>
      </trkpt>
      <trkpt lat="45.58631" lon="4.51036">
        <ele>884</ele>
        <time>2012-04-09T09:52:00Z</time>
      </trkpt>
      <trkpt lat="45.58626" lon="4.51054">
        <ele>883</ele>
        <time>2012-04-09T09:52:07Z</time>
      </trkpt>
      <trkpt lat="45.58621" lon="4.51074">
        <ele>882</ele>
        <time>2012-04-09T09:52:15Z</time>
      </trkpt>
      <trkpt lat="45.58614" lon="4.51091">
        <ele>882</ele>
        <time>2012-04-09T09:52:25Z</time>
      </trkpt>
      <trkpt lat="45.58607" lon="4.51108">
        <ele>879</ele>
        <time>2012-04-09T09:52:34Z</time>
      </trkpt>
      <trkpt lat="45.58607" lon="4.51128">
        <ele>880</ele>
        <time>2012-04-09T09:52:42Z</time>
      </trkpt>
      <trkpt lat="45.586" lon="4.51145">
        <ele>877</ele>
        <time>2012-04-09T09:52:49Z</time>
      </trkpt>
      <trkpt lat="45.58595" lon="4.51164">
        <ele>879</ele>
        <time>2012-04-09T09:52:56Z</time>
      </trkpt>
      <trkpt lat="45.58588" lon="4.5118">
        <ele>878</ele>
        <time>2012-04-09T09:53:04Z</time>
      </trkpt>
      <trkpt lat="45.58582" lon="4.51198">
        <ele>878</ele>
        <time>2012-04-09T09:53:11Z</time>
      </trkpt>
      <trkpt lat="45.58575" lon="4.51218">
        <ele>879</ele>
        <time>2012-04-09T09:53:18Z</time>
      </trkpt>
      <trkpt lat="45.58568" lon="4.51238">
        <ele>879</ele>
        <time>2012-04-09T09:53:24Z</time>
      </trkpt>
      <trkpt lat="45.58556" lon="4.51249">
        <ele>874</ele>
        <time>2012-04-09T09:53:30Z</time>
      </trkpt>
      <trkpt lat="45.58543" lon="4.51256">
        <ele>874</ele>
        <time>2012-04-09T09:53:35Z</time>
      </trkpt>
      <trkpt lat="45.5854" lon="4.51275">
        <ele>873</ele>
        <time>2012-04-09T09:53:44Z</time>
      </trkpt>
      <trkpt lat="45.58543" lon="4.51296">
        <ele>876</ele>
        <time>2012-04-09T09:53:50Z</time>
      </trkpt>
      <trkpt lat="45.58541" lon="4.51316">
        <ele>873</ele>
        <time>2012-04-09T09:53:57Z</time>
      </trkpt>
      <trkpt lat="45.58539" lon="4.51337">
        <ele>872</ele>
        <time>2012-04-09T09:54:04Z</time>
      </trkpt>
      <trkpt lat="45.58547" lon="4.51356">
        <ele>867</ele>
        <time>2012-04-09T09:54:13Z</time>
      </trkpt>
      <trkpt lat="45.58555" lon="4.51376">
        <ele>863</ele>
        <time>2012-04-09T09:54:19Z</time>
      </trkpt>
      <trkpt lat="45.58557" lon="4.51396">
        <ele>863</ele>
        <time>2012-04-09T09:54:24Z</time>
      </trkpt>
      <trkpt lat="45.58561" lon="4.51418">
        <ele>863</ele>
        <time>2012-04-09T09:54:31Z</time>
      </trkpt>
      <trkpt lat="45.58561" lon="4.51439">
        <ele>863</ele>
        <time>2012-04-09T09:54:38Z</time>
      </trkpt>
      <trkpt lat="45.58561" lon="4.51462">
        <ele>859</ele>
        <time>2012-04-09T09:54:46Z</time>
      </trkpt>
      <trkpt lat="45.58564" lon="4.51482">
        <ele>856</ele>
        <time>2012-04-09T09:54:52Z</time>
      </trkpt>
      <trkpt lat="45.58562" lon="4.51506">
        <ele>854</ele>
        <time>2012-04-09T09:54:58Z</time>
      </trkpt>
      <trkpt lat="45.58555" lon="4.51523">
        <ele>856</ele>
        <time>2012-04-09T09:55:02Z</time>
      </trkpt>
      <trkpt lat="45.58547" lon="4.51541">
        <ele>854</ele>
        <time>2012-04-09T09:55:07Z</time>
      </trkpt>
      <trkpt lat="45.58541" lon="4.51563">
        <ele>853</ele>
        <time>2012-04-09T09:55:13Z</time>
      </trkpt>
      <trkpt lat="45.58535" lon="4.51581">
        <ele>851</ele>
        <time>2012-04-09T09:55:18Z</time>
      </trkpt>
      <trkpt lat="45.58524" lon="4.51595">
        <ele>849</ele>
        <time>2012-04-09T09:55:24Z</time>
      </trkpt>
      <trkpt lat="45.58521" lon="4.51614">
        <ele>847</ele>
        <time>2012-04-09T09:55:29Z</time>
      </trkpt>
      <trkpt lat="45.58516" lon="4.51632">
        <ele>843</ele>
        <time>2012-04-09T09:55:37Z</time>
      </trkpt>
      <trkpt lat="45.58508" lon="4.51651">
        <ele>842</ele>
        <time>2012-04-09T09:55:44Z</time>
      </trkpt>
      <trkpt lat="45.585" lon="4.51667">
        <ele>840</ele>
        <time>2012-04-09T09:55:49Z</time>
      </trkpt>
      <trkpt lat="45.58495" lon="4.51689">
        <ele>836</ele>
        <time>2012-04-09T09:55:55Z</time>
      </trkpt>
      <trkpt lat="45.5849" lon="4.51708">
        <ele>835</ele>
        <time>2012-04-09T09:56:00Z</time>
      </trkpt>
      <trkpt lat="45.58478" lon="4.51748">
        <ele>836</ele>
        <time>2012-04-09T09:56:09Z</time>
      </trkpt>
      <trkpt lat="45.58479" lon="4.51768">
        <ele>834</ele>
        <time>2012-04-09T09:56:18Z</time>
      </trkpt>
      <trkpt lat="45.58483" lon="4.51788">
        <ele>831</ele>
        <time>2012-04-09T09:56:29Z</time>
      </trkpt>
      <trkpt lat="45.58498" lon="4.51794">
        <ele>831</ele>
        <time>2012-04-09T09:56:36Z</time>
      </trkpt>
      <trkpt lat="45.58512" lon="4.51798">
        <ele>832</ele>
        <time>2012-04-09T09:56:43Z</time>
      </trkpt>
      <trkpt lat="45.58526" lon="4.51797">
        <ele>833</ele>
        <time>2012-04-09T09:56:54Z</time>
      </trkpt>
      <trkpt lat="45.5854" lon="4.51802">
        <ele>835</ele>
        <time>2012-04-09T09:57:04Z</time>
      </trkpt>
      <trkpt lat="45.58553" lon="4.51803">
        <ele>831</ele>
        <time>2012-04-09T09:57:13Z</time>
      </trkpt>
      <trkpt lat="45.58567" lon="4.51803">
        <ele>834</ele>
        <time>2012-04-09T09:57:24Z</time>
      </trkpt>
      <trkpt lat="45.58581" lon="4.51804">
        <ele>825</ele>
        <time>2012-04-09T09:57:33Z</time>
      </trkpt>
      <trkpt lat="45.58595" lon="4.51809">
        <ele>822</ele>
        <time>2012-04-09T09:57:42Z</time>
      </trkpt>
      <trkpt lat="45.58608" lon="4.51816">
        <ele>824</ele>
        <time>2012-04-09T09:57:51Z</time>
      </trkpt>
      <trkpt lat="45.58618" lon="4.51833">
        <ele>829</ele>
        <time>2012-04-09T09:58:01Z</time>
      </trkpt>
      <trkpt lat="45.58623" lon="4.51852">
        <ele>830</ele>
        <time>2012-04-09T09:58:08Z</time>
      </trkpt>
      <trkpt lat="45.58633" lon="4.51868">
        <ele>831</ele>
        <time>2012-04-09T09:58:17Z</time>
      </trkpt>
      <trkpt lat="45.5864" lon="4.51886">
        <ele>829</ele>
        <time>2012-04-09T09:58:27Z</time>
      </trkpt>
      <trkpt lat="45.58648" lon="4.51904">
        <ele>834</ele>
        <time>2012-04-09T09:58:37Z</time>
      </trkpt>
      <trkpt lat="45.58653" lon="4.51923">
        <ele>836</ele>
        <time>2012-04-09T09:58:45Z</time>
      </trkpt>
      <trkpt lat="45.58665" lon="4.51936">
        <ele>838</ele>
        <time>2012-04-09T09:58:58Z</time>
      </trkpt>
      <trkpt lat="45.58674" lon="4.51951">
        <ele>838</ele>
        <time>2012-04-09T09:59:08Z</time>
      </trkpt>
      <trkpt lat="45.58678" lon="4.51973">
        <ele>836</ele>
        <time>2012-04-09T09:59:17Z</time>
      </trkpt>
      <trkpt lat="45.58678" lon="4.51993">
        <ele>832</ele>
        <time>2012-04-09T09:59:32Z</time>
      </trkpt>
      <trkpt lat="45.5867" lon="4.5201">
        <ele>830</ele>
        <time>2012-04-09T09:59:41Z</time>
      </trkpt>
      <trkpt lat="45.58662" lon="4.5203">
        <ele>825</ele>
        <time>2012-04-09T09:59:50Z</time>
      </trkpt>
      <trkpt lat="45.58657" lon="4.52049">
        <ele>821</ele>
        <time>2012-04-09T10:00:00Z</time>
      </trkpt>
      <trkpt lat="45.58649" lon="4.52066">
        <ele>822</ele>
        <time>2012-04-09T10:00:07Z</time>
      </trkpt>
      <trkpt lat="45.58647" lon="4.52086">
        <ele>820</ele>
        <time>2012-04-09T10:00:21Z</time>
      </trkpt>
      <trkpt lat="45.58642" lon="4.52104">
        <ele>815</ele>
        <time>2012-04-09T10:00:29Z</time>
      </trkpt>
      <trkpt lat="45.58636" lon="4.52125">
        <ele>814</ele>
        <time>2012-04-09T10:00:39Z</time>
      </trkpt>
      <trkpt lat="45.5863" lon="4.52147">
        <ele>813</ele>
        <time>2012-04-09T10:00:44Z</time>
      </trkpt>
      <trkpt lat="45.58627" lon="4.52167">
        <ele>810</ele>
        <time>2012-04-09T10:00:50Z</time>
      </trkpt>
      <trkpt lat="45.58635" lon="4.52186">
        <ele>811</ele>
        <time>2012-04-09T10:00:56Z</time>
      </trkpt>
      <trkpt lat="45.58644" lon="4.52205">
        <ele>812</ele>
        <time>2012-04-09T10:01:02Z</time>
      </trkpt>
      <trkpt lat="45.58656" lon="4.52221">
        <ele>810</ele>
        <time>2012-04-09T10:01:07Z</time>
      </trkpt>
      <trkpt lat="45.58664" lon="4.52239">
        <ele>811</ele>
        <time>2012-04-09T10:01:13Z</time>
      </trkpt>
      <trkpt lat="45.58674" lon="4.52256">
        <ele>814</ele>
        <time>2012-04-09T10:01:24Z</time>
      </trkpt>
      <trkpt lat="45.58675" lon="4.52277">
        <ele>812</ele>
        <time>2012-04-09T10:01:30Z</time>
      </trkpt>
      <trkpt lat="45.58683" lon="4.52294">
        <ele>812</ele>
        <time>2012-04-09T10:01:40Z</time>
      </trkpt>
      <trkpt lat="45.58681" lon="4.52314">
        <ele>811</ele>
        <time>2012-04-09T10:01:51Z</time>
      </trkpt>
      <trkpt lat="45.58685" lon="4.52334">
        <ele>806</ele>
        <time>2012-04-09T10:02:02Z</time>
      </trkpt>
      <trkpt lat="45.58687" lon="4.52353">
        <ele>804</ele>
        <time>2012-04-09T10:02:10Z</time>
      </trkpt>
      <trkpt lat="45.58678" lon="4.52368">
        <ele>806</ele>
        <time>2012-04-09T10:02:20Z</time>
      </trkpt>
      <trkpt lat="45.58688" lon="4.52385">
        <ele>807</ele>
        <time>2012-04-09T10:02:29Z</time>
      </trkpt>
      <trkpt lat="45.58696" lon="4.52402">
        <ele>807</ele>
        <time>2012-04-09T10:02:36Z</time>
      </trkpt>
      <trkpt lat="45.58689" lon="4.52419">
        <ele>802</ele>
        <time>2012-04-09T10:02:45Z</time>
      </trkpt>
      <trkpt lat="45.58693" lon="4.52437">
        <ele>801</ele>
        <time>2012-04-09T10:02:55Z</time>
      </trkpt>
      <trkpt lat="45.58696" lon="4.52459">
        <ele>799</ele>
        <time>2012-04-09T10:03:04Z</time>
      </trkpt>
      <trkpt lat="45.587" lon="4.52479">
        <ele>793</ele>
        <time>2012-04-09T10:03:11Z</time>
      </trkpt>
      <trkpt lat="45.58698" lon="4.52499">
        <ele>791</ele>
        <time>2012-04-09T10:03:18Z</time>
      </trkpt>
      <trkpt lat="45.58709" lon="4.52511">
        <ele>785</ele>
        <time>2012-04-09T10:03:31Z</time>
      </trkpt>
      <trkpt lat="45.58711" lon="4.52531">
        <ele>783</ele>
        <time>2012-04-09T10:03:41Z</time>
      </trkpt>
      <trkpt lat="45.58707" lon="4.52551">
        <ele>776</ele>
        <time>2012-04-09T10:03:49Z</time>
      </trkpt>
      <trkpt lat="45.58703" lon="4.52573">
        <ele>771</ele>
        <time>2012-04-09T10:03:55Z</time>
      </trkpt>
      <trkpt lat="45.58698" lon="4.5259">
        <ele>771</ele>
        <time>2012-04-09T10:04:01Z</time>
      </trkpt>
      <trkpt lat="45.58686" lon="4.52603">
        <ele>767</ele>
        <time>2012-04-09T10:04:07Z</time>
      </trkpt>
      <trkpt lat="45.58696" lon="4.52618">
        <ele>758</ele>
        <time>2012-04-09T10:04:37Z</time>
      </trkpt>
      <trkpt lat="45.58702" lon="4.52636">
        <ele>762</ele>
        <time>2012-04-09T10:04:44Z</time>
      </trkpt>
      <trkpt lat="45.5871" lon="4.52652">
        <ele>759</ele>
        <time>2012-04-09T10:04:53Z</time>
      </trkpt>
      <trkpt lat="45.58708" lon="4.52672">
        <ele>763</ele>
        <time>2012-04-09T10:04:59Z</time>
      </trkpt>
      <trkpt lat="45.58706" lon="4.52691">
        <ele>769</ele>
        <time>2012-04-09T10:05:10Z</time>
      </trkpt>
      <trkpt lat="45.58707" lon="4.5271">
        <ele>772</ele>
        <time>2012-04-09T10:05:19Z</time>
      </trkpt>
      <trkpt lat="45.58701" lon="4.52728">
        <ele>775</ele>
        <time>2012-04-09T10:05:31Z</time>
      </trkpt>
      <trkpt lat="45.58695" lon="4.52747">
        <ele>780</ele>
        <time>2012-04-09T10:05:45Z</time>
      </trkpt>
      <trkpt lat="45.5869" lon="4.52766">
        <ele>782</ele>
        <time>2012-04-09T10:05:58Z</time>
      </trkpt>
      <trkpt lat="45.58683" lon="4.52785">
        <ele>785</ele>
        <time>2012-04-09T10:06:10Z</time>
      </trkpt>
      <trkpt lat="45.58683" lon="4.52805">
        <ele>781</ele>
        <time>2012-04-09T10:06:25Z</time>
      </trkpt>
      <trkpt lat="45.58685" lon="4.52826">
        <ele>778</ele>
        <time>2012-04-09T10:06:38Z</time>
      </trkpt>
      <trkpt lat="45.58687" lon="4.52847">
        <ele>777</ele>
        <time>2012-04-09T10:06:46Z</time>
      </trkpt>
      <trkpt lat="45.5868" lon="4.52866">
        <ele>776</ele>
        <time>2012-04-09T10:06:57Z</time>
      </trkpt>
      <trkpt lat="45.58684" lon="4.52886">
        <ele>774</ele>
        <time>2012-04-09T10:07:08Z</time>
      </trkpt>
      <trkpt lat="45.58687" lon="4.52909">
        <ele>775</ele>
        <time>2012-04-09T10:07:15Z</time>
      </trkpt>
      <trkpt lat="45.58686" lon="4.5293">
        <ele>776</ele>
        <time>2012-04-09T10:07:24Z</time>
      </trkpt>
      <trkpt lat="45.58702" lon="4.52934">
        <ele>776</ele>
        <time>2012-04-09T10:07:32Z</time>
      </trkpt>
      <trkpt lat="45.58716" lon="4.52932">
        <ele>776</ele>
        <time>2012-04-09T10:07:37Z</time>
      </trkpt>
      <trkpt lat="45.58728" lon="4.52944">
        <ele>774</ele>
        <time>2012-04-09T10:07:42Z</time>
      </trkpt>
      <trkpt lat="45.58742" lon="4.52945">
        <ele>772</ele>
        <time>2012-04-09T10:07:48Z</time>
      </trkpt>
      <trkpt lat="45.58752" lon="4.5293">
        <ele>767</ele>
        <time>2012-04-09T10:07:53Z</time>
      </trkpt>
      <trkpt lat="45.5877" lon="4.52898">
        <ele>764</ele>
        <time>2012-04-09T10:08:01Z</time>
      </trkpt>
      <trkpt lat="45.58781" lon="4.52884">
        <ele>764</ele>
        <time>2012-04-09T10:08:06Z</time>
      </trkpt>
      <trkpt lat="45.58779" lon="4.52861">
        <ele>757</ele>
        <time>2012-04-09T10:08:12Z</time>
      </trkpt>
      <trkpt lat="45.58789" lon="4.52844">
        <ele>759</ele>
        <time>2012-04-09T10:08:20Z</time>
      </trkpt>
      <trkpt lat="45.58789" lon="4.52824">
        <ele>747</ele>
        <time>2012-04-09T10:08:26Z</time>
      </trkpt>
      <trkpt lat="45.58789" lon="4.52802">
        <ele>748</ele>
        <time>2012-04-09T10:08:32Z</time>
      </trkpt>
      <trkpt lat="45.58804" lon="4.52799">
        <ele>750</ele>
        <time>2012-04-09T10:08:45Z</time>
      </trkpt>
      <trkpt lat="45.58818" lon="4.52798">
        <ele>752</ele>
        <time>2012-04-09T10:08:52Z</time>
      </trkpt>
      <trkpt lat="45.58831" lon="4.5281">
        <ele>760</ele>
        <time>2012-04-09T10:09:02Z</time>
      </trkpt>
      <trkpt lat="45.58843" lon="4.5282">
        <ele>759</ele>
        <time>2012-04-09T10:09:11Z</time>
      </trkpt>
      <trkpt lat="45.58853" lon="4.52833">
        <ele>762</ele>
        <time>2012-04-09T10:09:19Z</time>
      </trkpt>
      <trkpt lat="45.58866" lon="4.52838">
        <ele>762</ele>
        <time>2012-04-09T10:09:28Z</time>
      </trkpt>
      <trkpt lat="45.58878" lon="4.52825">
        <ele>764</ele>
        <time>2012-04-09T10:09:42Z</time>
      </trkpt>
      <trkpt lat="45.58892" lon="4.52823">
        <ele>766</ele>
        <time>2012-04-09T10:09:50Z</time>
      </trkpt>
      <trkpt lat="45.58906" lon="4.52819">
        <ele>768</ele>
        <time>2012-04-09T10:10:01Z</time>
      </trkpt>
      <trkpt lat="45.5892" lon="4.52819">
        <ele>769</ele>
        <time>2012-04-09T10:10:11Z</time>
      </trkpt>
      <trkpt lat="45.58934" lon="4.52813">
        <ele>766</ele>
        <time>2012-04-09T10:10:23Z</time>
      </trkpt>
      <trkpt lat="45.58948" lon="4.52807">
        <ele>768</ele>
        <time>2012-04-09T10:10:33Z</time>
      </trkpt>
      <trkpt lat="45.58961" lon="4.52801">
        <ele>767</ele>
        <time>2012-04-09T10:10:46Z</time>
      </trkpt>
      <trkpt lat="45.58973" lon="4.52793">
        <ele>767</ele>
        <time>2012-04-09T10:10:58Z</time>
      </trkpt>
      <trkpt lat="45.58986" lon="4.52788">
        <ele>778</ele>
        <time>2012-04-09T10:11:06Z</time>
      </trkpt>
      <trkpt lat="45.58998" lon="4.52775">
        <ele>775</ele>
        <time>2012-04-09T10:11:16Z</time>
      </trkpt>
      <trkpt lat="45.59009" lon="4.52762">
        <ele>775</ele>
        <time>2012-04-09T10:11:30Z</time>
      </trkpt>
      <trkpt lat="45.59017" lon="4.52747">
        <ele>776</ele>
        <time>2012-04-09T10:11:47Z</time>
      </trkpt>
      <trkpt lat="45.5903" lon="4.52739">
        <ele>779</ele>
        <time>2012-04-09T10:12:05Z</time>
      </trkpt>
      <trkpt lat="45.59045" lon="4.52734">
        <ele>783</ele>
        <time>2012-04-09T10:12:16Z</time>
      </trkpt>
      <trkpt lat="45.59058" lon="4.52729">
        <ele>782</ele>
        <time>2012-04-09T10:12:26Z</time>
      </trkpt>
      <trkpt lat="45.59064" lon="4.52712">
        <ele>787</ele>
        <time>2012-04-09T10:12:42Z</time>
      </trkpt>
      <trkpt lat="45.59078" lon="4.52708">
        <ele>787</ele>
        <time>2012-04-09T10:12:52Z</time>
      </trkpt>
      <trkpt lat="45.59092" lon="4.52706">
        <ele>788</ele>
        <time>2012-04-09T10:13:00Z</time>
      </trkpt>
      <trkpt lat="45.59105" lon="4.52714">
        <ele>788</ele>
        <time>2012-04-09T10:13:06Z</time>
      </trkpt>
      <trkpt lat="45.59105" lon="4.52714">
        <ele>784.6</ele>
        <time>2012-04-09T10:13:20Z</time>
      </trkpt>
      <trkpt lat="45.59105" lon="4.52714">
        <ele>784.6</ele>
        <time>2012-04-09T10:22:14Z</time>
      </trkpt>
      <trkpt lat="45.59103" lon="4.5271">
        <ele>788</ele>
        <time>2012-04-09T10:22:14Z</time>
      </trkpt>
      <trkpt lat="45.59116" lon="4.52702">
        <ele>792</ele>
        <time>2012-04-09T10:22:25Z</time>
      </trkpt>
      <trkpt lat="45.59129" lon="4.52692">
        <ele>792</ele>
        <time>2012-04-09T10:22:35Z</time>
      </trkpt>
      <trkpt lat="45.5914" lon="4.52682">
        <ele>796</ele>
        <time>2012-04-09T10:22:46Z</time>
      </trkpt>
      <trkpt lat="45.59152" lon="4.52671">
        <ele>799</ele>
        <time>2012-04-09T10:22:56Z</time>
      </trkpt>
      <trkpt lat="45.5915" lon="4.52651">
        <ele>804</ele>
        <time>2012-04-09T10:23:10Z</time>
      </trkpt>
      <trkpt lat="45.59145" lon="4.52631">
        <ele>802</ele>
        <time>2012-04-09T10:23:19Z</time>
      </trkpt>
      <trkpt lat="45.59147" lon="4.52612">
        <ele>802</ele>
        <time>2012-04-09T10:23:29Z</time>
      </trkpt>
      <trkpt lat="45.5914" lon="4.52592">
        <ele>796</ele>
        <time>2012-04-09T10:23:38Z</time>
      </trkpt>
      <trkpt lat="45.59132" lon="4.52575">
        <ele>797</ele>
        <time>2012-04-09T10:23:47Z</time>
      </trkpt>
      <trkpt lat="45.59124" lon="4.52557">
        <ele>800</ele>
        <time>2012-04-09T10:23:56Z</time>
      </trkpt>
      <trkpt lat="45.59117" lon="4.52539">
        <ele>799</ele>
        <time>2012-04-09T10:24:06Z</time>
      </trkpt>
      <trkpt lat="45.59115" lon="4.52519">
        <ele>797</ele>
        <time>2012-04-09T10:24:13Z</time>
      </trkpt>
      <trkpt lat="45.59115" lon="4.52499">
        <ele>798</ele>
        <time>2012-04-09T10:24:25Z</time>
      </trkpt>
      <trkpt lat="45.59117" lon="4.52479">
        <ele>800</ele>
        <time>2012-04-09T10:24:33Z</time>
      </trkpt>
      <trkpt lat="45.59111" lon="4.5246">
        <ele>802</ele>
        <time>2012-04-09T10:24:43Z</time>
      </trkpt>
      <trkpt lat="45.59111" lon="4.5244">
        <ele>799</ele>
        <time>2012-04-09T10:24:51Z</time>
      </trkpt>
      <trkpt lat="45.59114" lon="4.5242">
        <ele>800</ele>
        <time>2012-04-09T10:25:00Z</time>
      </trkpt>
      <trkpt lat="45.59118" lon="4.52399">
        <ele>798</ele>
        <time>2012-04-09T10:25:10Z</time>
      </trkpt>
      <trkpt lat="45.59121" lon="4.52379">
        <ele>801</ele>
        <time>2012-04-09T10:25:18Z</time>
      </trkpt>
      <trkpt lat="45.59122" lon="4.52359">
        <ele>805</ele>
        <time>2012-04-09T10:25:28Z</time>
      </trkpt>
      <trkpt lat="45.59134" lon="4.52349">
        <ele>804</ele>
        <time>2012-04-09T10:25:38Z</time>
      </trkpt>
      <trkpt lat="45.59139" lon="4.52329">
        <ele>800</ele>
        <time>2012-04-09T10:25:48Z</time>
      </trkpt>
      <trkpt lat="45.59135" lon="4.5231">
        <ele>800</ele>
        <time>2012-04-09T10:25:55Z</time>
      </trkpt>
      <trkpt lat="45.59122" lon="4.52301">
        <ele>801</ele>
        <time>2012-04-09T10:26:04Z</time>
      </trkpt>
      <trkpt lat="45.59111" lon="4.52286">
        <ele>809</ele>
        <time>2012-04-09T10:26:20Z</time>
      </trkpt>
      <trkpt lat="45.59102" lon="4.52272">
        <ele>809</ele>
        <time>2012-04-09T10:26:29Z</time>
      </trkpt>
      <trkpt lat="45.59105" lon="4.52251">
        <ele>809</ele>
        <time>2012-04-09T10:26:37Z</time>
      </trkpt>
      <trkpt lat="45.59101" lon="4.5223">
        <ele>809</ele>
        <time>2012-04-09T10:26:49Z</time>
      </trkpt>
      <trkpt lat="45.59097" lon="4.5221">
        <ele>807</ele>
        <time>2012-04-09T10:27:00Z</time>
      </trkpt>
      <trkpt lat="45.59094" lon="4.5219">
        <ele>812</ele>
        <time>2012-04-09T10:27:09Z</time>
      </trkpt>
      <trkpt lat="45.59093" lon="4.52168">
        <ele>811</ele>
        <time>2012-04-09T10:27:19Z</time>
      </trkpt>
      <trkpt lat="45.59093" lon="4.52148">
        <ele>810</ele>
        <time>2012-04-09T10:27:27Z</time>
      </trkpt>
      <trkpt lat="45.59094" lon="4.52127">
        <ele>810</ele>
        <time>2012-04-09T10:27:41Z</time>
      </trkpt>
      <trkpt lat="45.5909" lon="4.52107">
        <ele>814</ele>
        <time>2012-04-09T10:27:54Z</time>
      </trkpt>
      <trkpt lat="45.59083" lon="4.52091">
        <ele>811</ele>
        <time>2012-04-09T10:28:06Z</time>
      </trkpt>
      <trkpt lat="45.59085" lon="4.5207">
        <ele>815</ele>
        <time>2012-04-09T10:28:22Z</time>
      </trkpt>
      <trkpt lat="45.59086" lon="4.52048">
        <ele>815</ele>
        <time>2012-04-09T10:28:30Z</time>
      </trkpt>
      <trkpt lat="45.5908" lon="4.5203">
        <ele>816</ele>
        <time>2012-04-09T10:28:38Z</time>
      </trkpt>
      <trkpt lat="45.59076" lon="4.5201">
        <ele>820</ele>
        <time>2012-04-09T10:28:51Z</time>
      </trkpt>
      <trkpt lat="45.59074" lon="4.5199">
        <ele>825</ele>
        <time>2012-04-09T10:29:01Z</time>
      </trkpt>
      <trkpt lat="45.59071" lon="4.5197">
        <ele>822</ele>
        <time>2012-04-09T10:29:09Z</time>
      </trkpt>
      <trkpt lat="45.59066" lon="4.51949">
        <ele>823</ele>
        <time>2012-04-09T10:29:20Z</time>
      </trkpt>
      <trkpt lat="45.59064" lon="4.51929">
        <ele>824</ele>
        <time>2012-04-09T10:29:29Z</time>
      </trkpt>
      <trkpt lat="45.59062" lon="4.51909">
        <ele>826</ele>
        <time>2012-04-09T10:29:40Z</time>
      </trkpt>
      <trkpt lat="45.59057" lon="4.51891">
        <ele>828</ele>
        <time>2012-04-09T10:29:51Z</time>
      </trkpt>
      <trkpt lat="45.59051" lon="4.51873">
        <ele>828</ele>
        <time>2012-04-09T10:30:01Z</time>
      </trkpt>
      <trkpt lat="45.59045" lon="4.51854">
        <ele>834</ele>
        <time>2012-04-09T10:30:13Z</time>
      </trkpt>
      <trkpt lat="45.59038" lon="4.51838">
        <ele>834</ele>
        <time>2012-04-09T10:30:22Z</time>
      </trkpt>
      <trkpt lat="45.5904" lon="4.51818">
        <ele>835</ele>
        <time>2012-04-09T10:30:33Z</time>
      </trkpt>
      <trkpt lat="45.59055" lon="4.51819">
        <ele>832</ele>
        <time>2012-04-09T10:30:43Z</time>
      </trkpt>
      <trkpt lat="45.59069" lon="4.51822">
        <ele>833</ele>
        <time>2012-04-09T10:30:53Z</time>
      </trkpt>
      <trkpt lat="45.5908" lon="4.51836">
        <ele>838</ele>
        <time>2012-04-09T10:31:05Z</time>
      </trkpt>
      <trkpt lat="45.59092" lon="4.51848">
        <ele>844</ele>
        <time>2012-04-09T10:31:20Z</time>
      </trkpt>
      <trkpt lat="45.59104" lon="4.51858">
        <ele>846</ele>
        <time>2012-04-09T10:31:31Z</time>
      </trkpt>
      <trkpt lat="45.59118" lon="4.51864">
        <ele>848</ele>
        <time>2012-04-09T10:31:44Z</time>
      </trkpt>
      <trkpt lat="45.59131" lon="4.51873">
        <ele>848</ele>
        <time>2012-04-09T10:31:53Z</time>
      </trkpt>
      <trkpt lat="45.59145" lon="4.51879">
        <ele>849</ele>
        <time>2012-04-09T10:32:09Z</time>
      </trkpt>
      <trkpt lat="45.59158" lon="4.51886">
        <ele>858</ele>
        <time>2012-04-09T10:32:23Z</time>
      </trkpt>
      <trkpt lat="45.59171" lon="4.51892">
        <ele>858</ele>
        <time>2012-04-09T10:32:38Z</time>
      </trkpt>
      <trkpt lat="45.59184" lon="4.51885">
        <ele>858</ele>
        <time>2012-04-09T10:32:53Z</time>
      </trkpt>
      <trkpt lat="45.59196" lon="4.51895">
        <ele>866</ele>
        <time>2012-04-09T10:33:05Z</time>
      </trkpt>
      <trkpt lat="45.59209" lon="4.519">
        <ele>870</ele>
        <time>2012-04-09T10:33:19Z</time>
      </trkpt>
      <trkpt lat="45.59223" lon="4.51896">
        <ele>870</ele>
        <time>2012-04-09T10:33:32Z</time>
      </trkpt>
      <trkpt lat="45.59236" lon="4.51889">
        <ele>869</ele>
        <time>2012-04-09T10:33:43Z</time>
      </trkpt>
      <trkpt lat="45.59249" lon="4.51883">
        <ele>874</ele>
        <time>2012-04-09T10:33:57Z</time>
      </trkpt>
      <trkpt lat="45.59264" lon="4.51887">
        <ele>879</ele>
        <time>2012-04-09T10:34:13Z</time>
      </trkpt>
      <trkpt lat="45.59279" lon="4.5189">
        <ele>878</ele>
        <time>2012-04-09T10:34:22Z</time>
      </trkpt>
      <trkpt lat="45.59292" lon="4.51895">
        <ele>876</ele>
        <time>2012-04-09T10:34:32Z</time>
      </trkpt>
      <trkpt lat="45.59305" lon="4.519">
        <ele>877</ele>
        <time>2012-04-09T10:34:41Z</time>
      </trkpt>
      <trkpt lat="45.59318" lon="4.51904">
        <ele>878</ele>
        <time>2012-04-09T10:34:51Z</time>
      </trkpt>
      <trkpt lat="45.59333" lon="4.51909">
        <ele>884</ele>
        <time>2012-04-09T10:35:03Z</time>
      </trkpt>
      <trkpt lat="45.59346" lon="4.5191">
        <ele>881</ele>
        <time>2012-04-09T10:35:11Z</time>
      </trkpt>
      <trkpt lat="45.5936" lon="4.51907">
        <ele>882</ele>
        <time>2012-04-09T10:35:19Z</time>
      </trkpt>
      <trkpt lat="45.59375" lon="4.51908">
        <ele>880</ele>
        <time>2012-04-09T10:35:29Z</time>
      </trkpt>
      <trkpt lat="45.5939" lon="4.51911">
        <ele>880</ele>
        <time>2012-04-09T10:35:36Z</time>
      </trkpt>
      <trkpt lat="45.59404" lon="4.51913">
        <ele>882</ele>
        <time>2012-04-09T10:35:45Z</time>
      </trkpt>
      <trkpt lat="45.59417" lon="4.5192">
        <ele>879</ele>
        <time>2012-04-09T10:35:55Z</time>
      </trkpt>
      <trkpt lat="45.59432" lon="4.51922">
        <ele>881</ele>
        <time>2012-04-09T10:36:02Z</time>
      </trkpt>
      <trkpt lat="45.59446" lon="4.51927">
        <ele>880</ele>
        <time>2012-04-09T10:36:13Z</time>
      </trkpt>
      <trkpt lat="45.5946" lon="4.51932">
        <ele>882</ele>
        <time>2012-04-09T10:36:22Z</time>
      </trkpt>
      <trkpt lat="45.59474" lon="4.51936">
        <ele>885</ele>
        <time>2012-04-09T10:36:31Z</time>
      </trkpt>
      <trkpt lat="45.59486" lon="4.51944">
        <ele>884</ele>
        <time>2012-04-09T10:36:40Z</time>
      </trkpt>
      <trkpt lat="45.595" lon="4.51935">
        <ele>884</ele>
        <time>2012-04-09T10:36:48Z</time>
      </trkpt>
      <trkpt lat="45.59513" lon="4.5194">
        <ele>884</ele>
        <time>2012-04-09T10:36:53Z</time>
      </trkpt>
      <trkpt lat="45.59527" lon="4.51934">
        <ele>884</ele>
        <time>2012-04-09T10:37:03Z</time>
      </trkpt>
      <trkpt lat="45.59541" lon="4.51934">
        <ele>883</ele>
        <time>2012-04-09T10:37:19Z</time>
      </trkpt>
      <trkpt lat="45.59555" lon="4.51934">
        <ele>885</ele>
        <time>2012-04-09T10:37:25Z</time>
      </trkpt>
      <trkpt lat="45.5957" lon="4.51932">
        <ele>885</ele>
        <time>2012-04-09T10:37:33Z</time>
      </trkpt>
      <trkpt lat="45.59584" lon="4.51933">
        <ele>885</ele>
        <time>2012-04-09T10:37:42Z</time>
      </trkpt>
      <trkpt lat="45.59598" lon="4.51935">
        <ele>883</ele>
        <time>2012-04-09T10:37:52Z</time>
      </trkpt>
      <trkpt lat="45.59612" lon="4.51933">
        <ele>886</ele>
        <time>2012-04-09T10:38:01Z</time>
      </trkpt>
      <trkpt lat="45.59626" lon="4.51933">
        <ele>889</ele>
        <time>2012-04-09T10:38:10Z</time>
      </trkpt>
      <trkpt lat="45.5964" lon="4.51937">
        <ele>890</ele>
        <time>2012-04-09T10:38:21Z</time>
      </trkpt>
      <trkpt lat="45.59656" lon="4.51934">
        <ele>889</ele>
        <time>2012-04-09T10:38:28Z</time>
      </trkpt>
      <trkpt lat="45.59668" lon="4.51923">
        <ele>889</ele>
        <time>2012-04-09T10:38:35Z</time>
      </trkpt>
      <trkpt lat="45.59682" lon="4.51927">
        <ele>888</ele>
        <time>2012-04-09T10:38:41Z</time>
      </trkpt>
      <trkpt lat="45.59694" lon="4.51934">
        <ele>891</ele>
        <time>2012-04-09T10:38:49Z</time>
      </trkpt>
      <trkpt lat="45.59708" lon="4.51942">
        <ele>888</ele>
        <time>2012-04-09T10:38:58Z</time>
      </trkpt>
      <trkpt lat="45.59721" lon="4.51951">
        <ele>887</ele>
        <time>2012-04-09T10:39:08Z</time>
      </trkpt>
      <trkpt lat="45.59734" lon="4.51959">
        <ele>889</ele>
        <time>2012-04-09T10:39:14Z</time>
      </trkpt>
      <trkpt lat="45.59747" lon="4.51966">
        <ele>887</ele>
        <time>2012-04-09T10:39:19Z</time>
      </trkpt>
      <trkpt lat="45.5978" lon="4.51977">
        <ele>885</ele>
        <time>2012-04-09T10:39:32Z</time>
      </trkpt>
      <trkpt lat="45.59794" lon="4.51986">
        <ele>885</ele>
        <time>2012-04-09T10:39:38Z</time>
      </trkpt>
      <trkpt lat="45.59808" lon="4.51994">
        <ele>884</ele>
        <time>2012-04-09T10:39:45Z</time>
      </trkpt>
      <trkpt lat="45.59821" lon="4.52002">
        <ele>883</ele>
        <time>2012-04-09T10:39:50Z</time>
      </trkpt>
      <trkpt lat="45.59836" lon="4.52008">
        <ele>882</ele>
        <time>2012-04-09T10:39:56Z</time>
      </trkpt>
      <trkpt lat="45.59849" lon="4.52003">
        <ele>881</ele>
        <time>2012-04-09T10:40:03Z</time>
      </trkpt>
      <trkpt lat="45.59863" lon="4.52007">
        <ele>881</ele>
        <time>2012-04-09T10:40:10Z</time>
      </trkpt>
      <trkpt lat="45.59876" lon="4.52011">
        <ele>879</ele>
        <time>2012-04-09T10:40:15Z</time>
      </trkpt>
      <trkpt lat="45.59889" lon="4.52016">
        <ele>877</ele>
        <time>2012-04-09T10:40:20Z</time>
      </trkpt>
      <trkpt lat="45.59905" lon="4.52023">
        <ele>873</ele>
        <time>2012-04-09T10:40:27Z</time>
      </trkpt>
      <trkpt lat="45.59918" lon="4.52034">
        <ele>871</ele>
        <time>2012-04-09T10:40:37Z</time>
      </trkpt>
      <trkpt lat="45.59933" lon="4.52043">
        <ele>873</ele>
        <time>2012-04-09T10:40:44Z</time>
      </trkpt>
      <trkpt lat="45.59947" lon="4.52052">
        <ele>873</ele>
        <time>2012-04-09T10:40:48Z</time>
      </trkpt>
      <trkpt lat="45.59961" lon="4.5205">
        <ele>868</ele>
        <time>2012-04-09T10:40:55Z</time>
      </trkpt>
      <trkpt lat="45.59975" lon="4.52046">
        <ele>868</ele>
        <time>2012-04-09T10:41:02Z</time>
      </trkpt>
      <trkpt lat="45.59989" lon="4.52049">
        <ele>865</ele>
        <time>2012-04-09T10:41:10Z</time>
      </trkpt>
      <trkpt lat="45.60002" lon="4.52057">
        <ele>866</ele>
        <time>2012-04-09T10:41:17Z</time>
      </trkpt>
      <trkpt lat="45.60016" lon="4.52063">
        <ele>866</ele>
        <time>2012-04-09T10:41:25Z</time>
      </trkpt>
      <trkpt lat="45.6003" lon="4.52065">
        <ele>865</ele>
        <time>2012-04-09T10:41:30Z</time>
      </trkpt>
      <trkpt lat="45.60045" lon="4.52064">
        <ele>862</ele>
        <time>2012-04-09T10:41:37Z</time>
      </trkpt>
      <trkpt lat="45.6006" lon="4.52066">
        <ele>863</ele>
        <time>2012-04-09T10:41:41Z</time>
      </trkpt>
      <trkpt lat="45.60074" lon="4.52068">
        <ele>863</ele>
        <time>2012-04-09T10:41:46Z</time>
      </trkpt>
      <trkpt lat="45.60088" lon="4.52073">
        <ele>863</ele>
        <time>2012-04-09T10:42:04Z</time>
      </trkpt>
      <trkpt lat="45.60102" lon="4.52079">
        <ele>855</ele>
        <time>2012-04-09T10:42:14Z</time>
      </trkpt>
      <trkpt lat="45.60115" lon="4.52089">
        <ele>851</ele>
        <time>2012-04-09T10:42:24Z</time>
      </trkpt>
      <trkpt lat="45.6013" lon="4.52087">
        <ele>850</ele>
        <time>2012-04-09T10:42:29Z</time>
      </trkpt>
      <trkpt lat="45.60143" lon="4.52087">
        <ele>851</ele>
        <time>2012-04-09T10:42:36Z</time>
      </trkpt>
      <trkpt lat="45.60155" lon="4.52099">
        <ele>847</ele>
        <time>2012-04-09T10:42:52Z</time>
      </trkpt>
      <trkpt lat="45.60169" lon="4.52096">
        <ele>847</ele>
        <time>2012-04-09T10:43:02Z</time>
      </trkpt>
      <trkpt lat="45.60184" lon="4.52096">
        <ele>846</ele>
        <time>2012-04-09T10:43:11Z</time>
      </trkpt>
      <trkpt lat="45.60198" lon="4.52102">
        <ele>844</ele>
        <time>2012-04-09T10:43:20Z</time>
      </trkpt>
      <trkpt lat="45.6021" lon="4.5211">
        <ele>841</ele>
        <time>2012-04-09T10:43:28Z</time>
      </trkpt>
      <trkpt lat="45.60225" lon="4.52113">
        <ele>837</ele>
        <time>2012-04-09T10:43:39Z</time>
      </trkpt>
      <trkpt lat="45.60237" lon="4.52121">
        <ele>836</ele>
        <time>2012-04-09T10:43:45Z</time>
      </trkpt>
      <trkpt lat="45.60247" lon="4.52135">
        <ele>833</ele>
        <time>2012-04-09T10:43:51Z</time>
      </trkpt>
      <trkpt lat="45.60254" lon="4.52153">
        <ele>832</ele>
        <time>2012-04-09T10:44:00Z</time>
      </trkpt>
      <trkpt lat="45.60262" lon="4.52171">
        <ele>833</ele>
        <time>2012-04-09T10:44:07Z</time>
      </trkpt>
      <trkpt lat="45.60268" lon="4.5219">
        <ele>833</ele>
        <time>2012-04-09T10:44:15Z</time>
      </trkpt>
      <trkpt lat="45.60276" lon="4.52207">
        <ele>832</ele>
        <time>2012-04-09T10:44:21Z</time>
      </trkpt>
      <trkpt lat="45.60279" lon="4.52226">
        <ele>831</ele>
        <time>2012-04-09T10:44:31Z</time>
      </trkpt>
      <trkpt lat="45.60293" lon="4.52234">
        <ele>831</ele>
        <time>2012-04-09T10:44:44Z</time>
      </trkpt>
      <trkpt lat="45.60307" lon="4.52237">
        <ele>830</ele>
        <time>2012-04-09T10:44:49Z</time>
      </trkpt>
      <trkpt lat="45.60321" lon="4.52235">
        <ele>830</ele>
        <time>2012-04-09T10:44:56Z</time>
      </trkpt>
      <trkpt lat="45.60336" lon="4.52234">
        <ele>828</ele>
        <time>2012-04-09T10:45:03Z</time>
      </trkpt>
      <trkpt lat="45.6035" lon="4.52234">
        <ele>826</ele>
        <time>2012-04-09T10:45:11Z</time>
      </trkpt>
      <trkpt lat="45.60359" lon="4.5225">
        <ele>823</ele>
        <time>2012-04-09T10:45:20Z</time>
      </trkpt>
      <trkpt lat="45.60365" lon="4.5227">
        <ele>824</ele>
        <time>2012-04-09T10:45:29Z</time>
      </trkpt>
      <trkpt lat="45.60372" lon="4.52288">
        <ele>825</ele>
        <time>2012-04-09T10:45:37Z</time>
      </trkpt>
      <trkpt lat="45.60378" lon="4.52306">
        <ele>830</ele>
        <time>2012-04-09T10:45:45Z</time>
      </trkpt>
      <trkpt lat="45.60391" lon="4.52314">
        <ele>826</ele>
        <time>2012-04-09T10:45:53Z</time>
      </trkpt>
      <trkpt lat="45.60395" lon="4.52333">
        <ele>825</ele>
        <time>2012-04-09T10:46:01Z</time>
      </trkpt>
      <trkpt lat="45.60399" lon="4.52352">
        <ele>823</ele>
        <time>2012-04-09T10:46:13Z</time>
      </trkpt>
      <trkpt lat="45.60406" lon="4.52371">
        <ele>826</ele>
        <time>2012-04-09T10:46:19Z</time>
      </trkpt>
      <trkpt lat="45.60409" lon="4.5239">
        <ele>823</ele>
        <time>2012-04-09T10:46:27Z</time>
      </trkpt>
      <trkpt lat="45.60402" lon="4.52407">
        <ele>821</ele>
        <time>2012-04-09T10:46:37Z</time>
      </trkpt>
      <trkpt lat="45.60403" lon="4.52429">
        <ele>820</ele>
        <time>2012-04-09T10:46:44Z</time>
      </trkpt>
      <trkpt lat="45.60404" lon="4.52449">
        <ele>822</ele>
        <time>2012-04-09T10:46:49Z</time>
      </trkpt>
      <trkpt lat="45.60409" lon="4.52467">
        <ele>820</ele>
        <time>2012-04-09T10:46:56Z</time>
      </trkpt>
      <trkpt lat="45.60412" lon="4.52487">
        <ele>819</ele>
        <time>2012-04-09T10:47:07Z</time>
      </trkpt>
      <trkpt lat="45.60417" lon="4.52506">
        <ele>821</ele>
        <time>2012-04-09T10:47:17Z</time>
      </trkpt>
      <trkpt lat="45.60426" lon="4.52521">
        <ele>821</ele>
        <time>2012-04-09T10:47:25Z</time>
      </trkpt>
      <trkpt lat="45.60437" lon="4.52532">
        <ele>823</ele>
        <time>2012-04-09T10:47:34Z</time>
      </trkpt>
      <trkpt lat="45.60448" lon="4.52544">
        <ele>825</ele>
        <time>2012-04-09T10:47:42Z</time>
      </trkpt>
      <trkpt lat="45.60461" lon="4.52558">
        <ele>826</ele>
        <time>2012-04-09T10:47:58Z</time>
      </trkpt>
      <trkpt lat="45.60474" lon="4.52574">
        <ele>827</ele>
        <time>2012-04-09T10:48:02Z</time>
      </trkpt>
      <trkpt lat="45.60484" lon="4.52588">
        <ele>825</ele>
        <time>2012-04-09T10:48:08Z</time>
      </trkpt>
      <trkpt lat="45.60499" lon="4.52589">
        <ele>820</ele>
        <time>2012-04-09T10:48:18Z</time>
      </trkpt>
      <trkpt lat="45.60511" lon="4.52598">
        <ele>820</ele>
        <time>2012-04-09T10:48:27Z</time>
      </trkpt>
      <trkpt lat="45.60523" lon="4.52612">
        <ele>825</ele>
        <time>2012-04-09T10:48:36Z</time>
      </trkpt>
      <trkpt lat="45.60531" lon="4.52629">
        <ele>825</ele>
        <time>2012-04-09T10:48:47Z</time>
      </trkpt>
      <trkpt lat="45.60522" lon="4.52646">
        <ele>824</ele>
        <time>2012-04-09T10:48:55Z</time>
      </trkpt>
      <trkpt lat="45.60513" lon="4.52661">
        <ele>823</ele>
        <time>2012-04-09T10:49:03Z</time>
      </trkpt>
      <trkpt lat="45.60507" lon="4.52679">
        <ele>821</ele>
        <time>2012-04-09T10:49:12Z</time>
      </trkpt>
      <trkpt lat="45.60503" lon="4.52699">
        <ele>819</ele>
        <time>2012-04-09T10:49:23Z</time>
      </trkpt>
      <trkpt lat="45.60491" lon="4.52712">
        <ele>821</ele>
        <time>2012-04-09T10:49:32Z</time>
      </trkpt>
      <trkpt lat="45.60477" lon="4.52719">
        <ele>820</ele>
        <time>2012-04-09T10:49:40Z</time>
      </trkpt>
      <trkpt lat="45.60473" lon="4.52738">
        <ele>820</ele>
        <time>2012-04-09T10:49:50Z</time>
      </trkpt>
      <trkpt lat="45.60477" lon="4.52758">
        <ele>816</ele>
        <time>2012-04-09T10:49:58Z</time>
      </trkpt>
      <trkpt lat="45.60482" lon="4.52776">
        <ele>820</ele>
        <time>2012-04-09T10:50:07Z</time>
      </trkpt>
      <trkpt lat="45.60485" lon="4.52797">
        <ele>820</ele>
        <time>2012-04-09T10:50:16Z</time>
      </trkpt>
      <trkpt lat="45.6049" lon="4.52815">
        <ele>821</ele>
        <time>2012-04-09T10:50:27Z</time>
      </trkpt>
      <trkpt lat="45.60491" lon="4.52838">
        <ele>819</ele>
        <time>2012-04-09T10:50:34Z</time>
      </trkpt>
      <trkpt lat="45.60496" lon="4.52856">
        <ele>823</ele>
        <time>2012-04-09T10:50:42Z</time>
      </trkpt>
      <trkpt lat="45.6051" lon="4.52861">
        <ele>821</ele>
        <time>2012-04-09T10:50:52Z</time>
      </trkpt>
      <trkpt lat="45.60518" lon="4.52878">
        <ele>826</ele>
        <time>2012-04-09T10:51:01Z</time>
      </trkpt>
      <trkpt lat="45.60518" lon="4.52899">
        <ele>827</ele>
        <time>2012-04-09T10:51:09Z</time>
      </trkpt>
      <trkpt lat="45.60526" lon="4.52915">
        <ele>829</ele>
        <time>2012-04-09T10:51:16Z</time>
      </trkpt>
      <trkpt lat="45.60538" lon="4.52924">
        <ele>831</ele>
        <time>2012-04-09T10:51:25Z</time>
      </trkpt>
      <trkpt lat="45.60546" lon="4.5294">
        <ele>833</ele>
        <time>2012-04-09T10:51:35Z</time>
      </trkpt>
      <trkpt lat="45.60544" lon="4.52962">
        <ele>836</ele>
        <time>2012-04-09T10:51:42Z</time>
      </trkpt>
      <trkpt lat="45.60546" lon="4.52982">
        <ele>837</ele>
        <time>2012-04-09T10:51:49Z</time>
      </trkpt>
      <trkpt lat="45.60557" lon="4.52994">
        <ele>839</ele>
        <time>2012-04-09T10:51:59Z</time>
      </trkpt>
      <trkpt lat="45.60568" lon="4.53008">
        <ele>840</ele>
        <time>2012-04-09T10:52:11Z</time>
      </trkpt>
      <trkpt lat="45.60573" lon="4.53026">
        <ele>843</ele>
        <time>2012-04-09T10:52:19Z</time>
      </trkpt>
      <trkpt lat="45.60583" lon="4.53042">
        <ele>839</ele>
        <time>2012-04-09T10:52:34Z</time>
      </trkpt>
      <trkpt lat="45.60581" lon="4.53062">
        <ele>838</ele>
        <time>2012-04-09T10:52:40Z</time>
      </trkpt>
      <trkpt lat="45.60579" lon="4.53082">
        <ele>839</ele>
        <time>2012-04-09T10:52:48Z</time>
      </trkpt>
      <trkpt lat="45.60574" lon="4.53102">
        <ele>839</ele>
        <time>2012-04-09T10:52:55Z</time>
      </trkpt>
      <trkpt lat="45.60582" lon="4.53118">
        <ele>839</ele>
        <time>2012-04-09T10:53:19Z</time>
      </trkpt>
      <trkpt lat="45.60579" lon="4.53137">
        <ele>843</ele>
        <time>2012-04-09T10:53:30Z</time>
      </trkpt>
      <trkpt lat="45.60574" lon="4.53156">
        <ele>849</ele>
        <time>2012-04-09T10:53:41Z</time>
      </trkpt>
      <trkpt lat="45.60569" lon="4.53175">
        <ele>849</ele>
        <time>2012-04-09T10:53:54Z</time>
      </trkpt>
      <trkpt lat="45.60561" lon="4.53192">
        <ele>852</ele>
        <time>2012-04-09T10:54:07Z</time>
      </trkpt>
      <trkpt lat="45.60555" lon="4.53212">
        <ele>852</ele>
        <time>2012-04-09T10:54:19Z</time>
      </trkpt>
      <trkpt lat="45.60558" lon="4.53231">
        <ele>851</ele>
        <time>2012-04-09T10:54:36Z</time>
      </trkpt>
      <trkpt lat="45.60562" lon="4.53251">
        <ele>854</ele>
        <time>2012-04-09T10:54:51Z</time>
      </trkpt>
      <trkpt lat="45.60565" lon="4.53271">
        <ele>857</ele>
        <time>2012-04-09T10:55:05Z</time>
      </trkpt>
      <trkpt lat="45.60573" lon="4.53286">
        <ele>865</ele>
        <time>2012-04-09T10:55:20Z</time>
      </trkpt>
      <trkpt lat="45.60572" lon="4.53306">
        <ele>870</ele>
        <time>2012-04-09T10:55:30Z</time>
      </trkpt>
      <trkpt lat="45.60582" lon="4.53321">
        <ele>872</ele>
        <time>2012-04-09T10:55:41Z</time>
      </trkpt>
      <trkpt lat="45.60596" lon="4.53325">
        <ele>873</ele>
        <time>2012-04-09T10:55:52Z</time>
      </trkpt>
      <trkpt lat="45.606" lon="4.53344">
        <ele>876</ele>
        <time>2012-04-09T10:56:01Z</time>
      </trkpt>
      <trkpt lat="45.60601" lon="4.53364">
        <ele>879</ele>
        <time>2012-04-09T10:56:10Z</time>
      </trkpt>
      <trkpt lat="45.60616" lon="4.53366">
        <ele>878</ele>
        <time>2012-04-09T10:56:20Z</time>
      </trkpt>
      <trkpt lat="45.60624" lon="4.53383">
        <ele>877</ele>
        <time>2012-04-09T10:56:30Z</time>
      </trkpt>
      <trkpt lat="45.60628" lon="4.53402">
        <ele>874</ele>
        <time>2012-04-09T10:56:39Z</time>
      </trkpt>
      <trkpt lat="45.60633" lon="4.53421">
        <ele>880</ele>
        <time>2012-04-09T10:56:45Z</time>
      </trkpt>
      <trkpt lat="45.60639" lon="4.53439">
        <ele>881</ele>
        <time>2012-04-09T10:56:53Z</time>
      </trkpt>
      <trkpt lat="45.60649" lon="4.53453">
        <ele>875</ele>
        <time>2012-04-09T10:57:08Z</time>
      </trkpt>
      <trkpt lat="45.60657" lon="4.5347">
        <ele>879</ele>
        <time>2012-04-09T10:57:18Z</time>
      </trkpt>
      <trkpt lat="45.60661" lon="4.53488">
        <ele>883</ele>
        <time>2012-04-09T10:57:27Z</time>
      </trkpt>
      <trkpt lat="45.60666" lon="4.53507">
        <ele>883</ele>
        <time>2012-04-09T10:57:40Z</time>
      </trkpt>
      <trkpt lat="45.60672" lon="4.53526">
        <ele>880</ele>
        <time>2012-04-09T10:58:01Z</time>
      </trkpt>
      <trkpt lat="45.60672" lon="4.53547">
        <ele>880</ele>
        <time>2012-04-09T10:58:08Z</time>
      </trkpt>
      <trkpt lat="45.60685" lon="4.53546">
        <ele>882</ele>
        <time>2012-04-09T10:58:16Z</time>
      </trkpt>
      <trkpt lat="45.60694" lon="4.53561">
        <ele>884</ele>
        <time>2012-04-09T10:58:26Z</time>
      </trkpt>
      <trkpt lat="45.60697" lon="4.53582">
        <ele>889</ele>
        <time>2012-04-09T10:58:37Z</time>
      </trkpt>
      <trkpt lat="45.60712" lon="4.53589">
        <ele>892</ele>
        <time>2012-04-09T10:58:50Z</time>
      </trkpt>
      <trkpt lat="45.60719" lon="4.53607">
        <ele>898</ele>
        <time>2012-04-09T10:58:58Z</time>
      </trkpt>
      <trkpt lat="45.60733" lon="4.53611">
        <ele>896</ele>
        <time>2012-04-09T10:59:13Z</time>
      </trkpt>
      <trkpt lat="45.60739" lon="4.53629">
        <ele>903</ele>
        <time>2012-04-09T10:59:24Z</time>
      </trkpt>
      <trkpt lat="45.60751" lon="4.53639">
        <ele>903</ele>
        <time>2012-04-09T10:59:41Z</time>
      </trkpt>
      <trkpt lat="45.60751" lon="4.53639">
        <ele>898</ele>
        <time>2012-04-09T10:59:50Z</time>
      </trkpt>
      <trkpt lat="45.60751" lon="4.53639">
        <ele>898</ele>
        <time>2012-04-09T11:00:53Z</time>
      </trkpt>
      <trkpt lat="45.60793" lon="4.53644">
        <ele>913</ele>
        <time>2012-04-09T11:01:02Z</time>
      </trkpt>
      <trkpt lat="45.60806" lon="4.53653">
        <ele>909</ele>
        <time>2012-04-09T11:01:15Z</time>
      </trkpt>
      <trkpt lat="45.60817" lon="4.53665">
        <ele>910</ele>
        <time>2012-04-09T11:01:24Z</time>
      </trkpt>
      <trkpt lat="45.60817" lon="4.53665">
        <ele>896.7</ele>
        <time>2012-04-09T11:01:43Z</time>
      </trkpt>
      <trkpt lat="45.60817" lon="4.53665">
        <ele>896.7</ele>
        <time>2012-04-09T11:06:46Z</time>
      </trkpt>
      <trkpt lat="45.60846" lon="4.53681">
        <ele>912</ele>
        <time>2012-04-09T11:06:56Z</time>
      </trkpt>
      <trkpt lat="45.60854" lon="4.53696">
        <ele>910</ele>
        <time>2012-04-09T11:07:04Z</time>
      </trkpt>
      <trkpt lat="45.60867" lon="4.53705">
        <ele>908</ele>
        <time>2012-04-09T11:07:11Z</time>
      </trkpt>
      <trkpt lat="45.60881" lon="4.53713">
        <ele>909</ele>
        <time>2012-04-09T11:07:19Z</time>
      </trkpt>
      <trkpt lat="45.60895" lon="4.53722">
        <ele>910</ele>
        <time>2012-04-09T11:07:24Z</time>
      </trkpt>
      <trkpt lat="45.60907" lon="4.53733">
        <ele>906</ele>
        <time>2012-04-09T11:07:31Z</time>
      </trkpt>
      <trkpt lat="45.60921" lon="4.53741">
        <ele>906</ele>
        <time>2012-04-09T11:07:40Z</time>
      </trkpt>
      <trkpt lat="45.60934" lon="4.53743">
        <ele>907</ele>
        <time>2012-04-09T11:07:46Z</time>
      </trkpt>
      <trkpt lat="45.60946" lon="4.53753">
        <ele>902</ele>
        <time>2012-04-09T11:07:54Z</time>
      </trkpt>
      <trkpt lat="45.60959" lon="4.5376">
        <ele>899</ele>
        <time>2012-04-09T11:08:05Z</time>
      </trkpt>
      <trkpt lat="45.60972" lon="4.53768">
        <ele>900</ele>
        <time>2012-04-09T11:08:12Z</time>
      </trkpt>
      <trkpt lat="45.60984" lon="4.53778">
        <ele>894</ele>
        <time>2012-04-09T11:08:19Z</time>
      </trkpt>
      <trkpt lat="45.60995" lon="4.53789">
        <ele>892</ele>
        <time>2012-04-09T11:08:26Z</time>
      </trkpt>
      <trkpt lat="45.61009" lon="4.53799">
        <ele>894</ele>
        <time>2012-04-09T11:08:36Z</time>
      </trkpt>
      <trkpt lat="45.6102" lon="4.5381">
        <ele>893</ele>
        <time>2012-04-09T11:08:45Z</time>
      </trkpt>
      <trkpt lat="45.61036" lon="4.5381">
        <ele>894</ele>
        <time>2012-04-09T11:08:51Z</time>
      </trkpt>
      <trkpt lat="45.61046" lon="4.53826">
        <ele>893</ele>
        <time>2012-04-09T11:09:01Z</time>
      </trkpt>
      <trkpt lat="45.61052" lon="4.53845">
        <ele>893</ele>
        <time>2012-04-09T11:09:08Z</time>
      </trkpt>
      <trkpt lat="45.61064" lon="4.53857">
        <ele>893</ele>
        <time>2012-04-09T11:09:18Z</time>
      </trkpt>
      <trkpt lat="45.61078" lon="4.53861">
        <ele>893</ele>
        <time>2012-04-09T11:09:27Z</time>
      </trkpt>
      <trkpt lat="45.61091" lon="4.53852">
        <ele>894</ele>
        <time>2012-04-09T11:09:34Z</time>
      </trkpt>
      <trkpt lat="45.61101" lon="4.53839">
        <ele>889</ele>
        <time>2012-04-09T11:09:44Z</time>
      </trkpt>
      <trkpt lat="45.61112" lon="4.53823">
        <ele>890</ele>
        <time>2012-04-09T11:09:53Z</time>
      </trkpt>
      <trkpt lat="45.6112" lon="4.53804">
        <ele>884</ele>
        <time>2012-04-09T11:09:58Z</time>
      </trkpt>
      <trkpt lat="45.61129" lon="4.53786">
        <ele>884</ele>
        <time>2012-04-09T11:10:04Z</time>
      </trkpt>
      <trkpt lat="45.6114" lon="4.53776">
        <ele>883</ele>
        <time>2012-04-09T11:10:11Z</time>
      </trkpt>
      <trkpt lat="45.61156" lon="4.53775">
        <ele>881</ele>
        <time>2012-04-09T11:10:19Z</time>
      </trkpt>
      <trkpt lat="45.61169" lon="4.53769">
        <ele>880</ele>
        <time>2012-04-09T11:10:28Z</time>
      </trkpt>
      <trkpt lat="45.61182" lon="4.53761">
        <ele>878</ele>
        <time>2012-04-09T11:10:42Z</time>
      </trkpt>
      <trkpt lat="45.61194" lon="4.53751">
        <ele>873</ele>
        <time>2012-04-09T11:10:54Z</time>
      </trkpt>
      <trkpt lat="45.61207" lon="4.53739">
        <ele>868</ele>
        <time>2012-04-09T11:11:10Z</time>
      </trkpt>
      <trkpt lat="45.61222" lon="4.53738">
        <ele>868</ele>
        <time>2012-04-09T11:11:17Z</time>
      </trkpt>
      <trkpt lat="45.61233" lon="4.53749">
        <ele>868</ele>
        <time>2012-04-09T11:11:23Z</time>
      </trkpt>
      <trkpt lat="45.61234" lon="4.5377">
        <ele>866</ele>
        <time>2012-04-09T11:11:31Z</time>
      </trkpt>
      <trkpt lat="45.6124" lon="4.53791">
        <ele>870</ele>
        <time>2012-04-09T11:11:37Z</time>
      </trkpt>
      <trkpt lat="45.61255" lon="4.53791">
        <ele>873</ele>
        <time>2012-04-09T11:11:43Z</time>
      </trkpt>
      <trkpt lat="45.61269" lon="4.5379">
        <ele>877</ele>
        <time>2012-04-09T11:11:48Z</time>
      </trkpt>
      <trkpt lat="45.61282" lon="4.53788">
        <ele>874</ele>
        <time>2012-04-09T11:11:54Z</time>
      </trkpt>
      <trkpt lat="45.61297" lon="4.53786">
        <ele>872</ele>
        <time>2012-04-09T11:12:00Z</time>
      </trkpt>
      <trkpt lat="45.61311" lon="4.53783">
        <ele>871</ele>
        <time>2012-04-09T11:12:09Z</time>
      </trkpt>
      <trkpt lat="45.61325" lon="4.53788">
        <ele>868</ele>
        <time>2012-04-09T11:12:17Z</time>
      </trkpt>
      <trkpt lat="45.6134" lon="4.53792">
        <ele>868</ele>
        <time>2012-04-09T11:12:28Z</time>
      </trkpt>
      <trkpt lat="45.61354" lon="4.53797">
        <ele>868</ele>
        <time>2012-04-09T11:12:33Z</time>
      </trkpt>
      <trkpt lat="45.61368" lon="4.53799">
        <ele>869</ele>
        <time>2012-04-09T11:12:40Z</time>
      </trkpt>
      <trkpt lat="45.61378" lon="4.53815">
        <ele>866</ele>
        <time>2012-04-09T11:12:50Z</time>
      </trkpt>
      <trkpt lat="45.61384" lon="4.53833">
        <ele>866</ele>
        <time>2012-04-09T11:12:58Z</time>
      </trkpt>
      <trkpt lat="45.61394" lon="4.53848">
        <ele>862</ele>
        <time>2012-04-09T11:13:09Z</time>
      </trkpt>
      <trkpt lat="45.61397" lon="4.53868">
        <ele>859</ele>
        <time>2012-04-09T11:13:17Z</time>
      </trkpt>
      <trkpt lat="45.61403" lon="4.53886">
        <ele>858</ele>
        <time>2012-04-09T11:13:25Z</time>
      </trkpt>
      <trkpt lat="45.61407" lon="4.53905">
        <ele>856</ele>
        <time>2012-04-09T11:13:31Z</time>
      </trkpt>
      <trkpt lat="45.61415" lon="4.53921">
        <ele>856</ele>
        <time>2012-04-09T11:13:38Z</time>
      </trkpt>
      <trkpt lat="45.61424" lon="4.53938">
        <ele>854</ele>
        <time>2012-04-09T11:13:46Z</time>
      </trkpt>
      <trkpt lat="45.61431" lon="4.53955">
        <ele>853</ele>
        <time>2012-04-09T11:13:51Z</time>
      </trkpt>
      <trkpt lat="45.61436" lon="4.53977">
        <ele>852</ele>
        <time>2012-04-09T11:13:58Z</time>
      </trkpt>
      <trkpt lat="45.61439" lon="4.53997">
        <ele>851</ele>
        <time>2012-04-09T11:14:04Z</time>
      </trkpt>
      <trkpt lat="45.61446" lon="4.54015">
        <ele>849</ele>
        <time>2012-04-09T11:14:11Z</time>
      </trkpt>
      <trkpt lat="45.61458" lon="4.54026">
        <ele>851</ele>
        <time>2012-04-09T11:14:16Z</time>
      </trkpt>
      <trkpt lat="45.61472" lon="4.54017">
        <ele>848</ele>
        <time>2012-04-09T11:14:21Z</time>
      </trkpt>
      <trkpt lat="45.61478" lon="4.53998">
        <ele>839</ele>
        <time>2012-04-09T11:14:27Z</time>
      </trkpt>
      <trkpt lat="45.61484" lon="4.5398">
        <ele>833</ele>
        <time>2012-04-09T11:14:35Z</time>
      </trkpt>
      <trkpt lat="45.61494" lon="4.53965">
        <ele>834</ele>
        <time>2012-04-09T11:14:40Z</time>
      </trkpt>
      <trkpt lat="45.61506" lon="4.5395">
        <ele>834</ele>
        <time>2012-04-09T11:14:45Z</time>
      </trkpt>
      <trkpt lat="45.61517" lon="4.53936">
        <ele>830</ele>
        <time>2012-04-09T11:14:51Z</time>
      </trkpt>
      <trkpt lat="45.6153" lon="4.53923">
        <ele>832</ele>
        <time>2012-04-09T11:14:57Z</time>
      </trkpt>
      <trkpt lat="45.61538" lon="4.53904">
        <ele>837</ele>
        <time>2012-04-09T11:15:04Z</time>
      </trkpt>
      <trkpt lat="45.61554" lon="4.53898">
        <ele>836</ele>
        <time>2012-04-09T11:15:09Z</time>
      </trkpt>
      <trkpt lat="45.61568" lon="4.53894">
        <ele>835</ele>
        <time>2012-04-09T11:15:16Z</time>
      </trkpt>
      <trkpt lat="45.61578" lon="4.53878">
        <ele>835</ele>
        <time>2012-04-09T11:15:25Z</time>
      </trkpt>
      <trkpt lat="45.61582" lon="4.53858">
        <ele>832</ele>
        <time>2012-04-09T11:15:32Z</time>
      </trkpt>
      <trkpt lat="45.61582" lon="4.53837">
        <ele>829</ele>
        <time>2012-04-09T11:15:42Z</time>
      </trkpt>
      <trkpt lat="45.61583" lon="4.53817">
        <ele>832</ele>
        <time>2012-04-09T11:15:50Z</time>
      </trkpt>
      <trkpt lat="45.61585" lon="4.53797">
        <ele>824</ele>
        <time>2012-04-09T11:15:58Z</time>
      </trkpt>
      <trkpt lat="45.61591" lon="4.53776">
        <ele>822</ele>
        <time>2012-04-09T11:16:08Z</time>
      </trkpt>
      <trkpt lat="45.61597" lon="4.53758">
        <ele>822</ele>
        <time>2012-04-09T11:16:14Z</time>
      </trkpt>
      <trkpt lat="45.61604" lon="4.5374">
        <ele>820</ele>
        <time>2012-04-09T11:16:20Z</time>
      </trkpt>
      <trkpt lat="45.61615" lon="4.53724">
        <ele>819</ele>
        <time>2012-04-09T11:16:26Z</time>
      </trkpt>
      <trkpt lat="45.61627" lon="4.53712">
        <ele>819</ele>
        <time>2012-04-09T11:16:32Z</time>
      </trkpt>
      <trkpt lat="45.61633" lon="4.53693">
        <ele>819</ele>
        <time>2012-04-09T11:16:39Z</time>
      </trkpt>
      <trkpt lat="45.61635" lon="4.53673">
        <ele>818</ele>
        <time>2012-04-09T11:16:48Z</time>
      </trkpt>
      <trkpt lat="45.61638" lon="4.53654">
        <ele>819</ele>
        <time>2012-04-09T11:16:57Z</time>
      </trkpt>
      <trkpt lat="45.61639" lon="4.53634">
        <ele>818</ele>
        <time>2012-04-09T11:17:09Z</time>
      </trkpt>
      <trkpt lat="45.61636" lon="4.53615">
        <ele>819</ele>
        <time>2012-04-09T11:17:20Z</time>
      </trkpt>
      <trkpt lat="45.61627" lon="4.53598">
        <ele>817</ele>
        <time>2012-04-09T11:17:27Z</time>
      </trkpt>
      <trkpt lat="45.61614" lon="4.53585">
        <ele>813</ele>
        <time>2012-04-09T11:17:33Z</time>
      </trkpt>
      <trkpt lat="45.61603" lon="4.53572">
        <ele>811</ele>
        <time>2012-04-09T11:17:39Z</time>
      </trkpt>
      <trkpt lat="45.61595" lon="4.53554">
        <ele>810</ele>
        <time>2012-04-09T11:17:44Z</time>
      </trkpt>
      <trkpt lat="45.61593" lon="4.53535">
        <ele>811</ele>
        <time>2012-04-09T11:17:54Z</time>
      </trkpt>
      <trkpt lat="45.61583" lon="4.53522">
        <ele>811</ele>
        <time>2012-04-09T11:18:02Z</time>
      </trkpt>
      <trkpt lat="45.61571" lon="4.53509">
        <ele>810</ele>
        <time>2012-04-09T11:18:10Z</time>
      </trkpt>
      <trkpt lat="45.61559" lon="4.53498">
        <ele>807</ele>
        <time>2012-04-09T11:18:17Z</time>
      </trkpt>
      <trkpt lat="45.61545" lon="4.53494">
        <ele>806</ele>
        <time>2012-04-09T11:18:25Z</time>
      </trkpt>
      <trkpt lat="45.61526" lon="4.53457">
        <ele>804</ele>
        <time>2012-04-09T11:18:33Z</time>
      </trkpt>
      <trkpt lat="45.61518" lon="4.53437">
        <ele>801</ele>
        <time>2012-04-09T11:18:39Z</time>
      </trkpt>
      <trkpt lat="45.61515" lon="4.53417">
        <ele>803</ele>
        <time>2012-04-09T11:18:43Z</time>
      </trkpt>
      <trkpt lat="45.615" lon="4.53384">
        <ele>796</ele>
        <time>2012-04-09T11:18:56Z</time>
      </trkpt>
      <trkpt lat="45.61514" lon="4.53382">
        <ele>789</ele>
        <time>2012-04-09T11:19:20Z</time>
      </trkpt>
      <trkpt lat="45.61526" lon="4.53393">
        <ele>787</ele>
        <time>2012-04-09T11:19:25Z</time>
      </trkpt>
      <trkpt lat="45.61537" lon="4.53403">
        <ele>788</ele>
        <time>2012-04-09T11:19:29Z</time>
      </trkpt>
      <trkpt lat="45.61551" lon="4.53409">
        <ele>790</ele>
        <time>2012-04-09T11:19:34Z</time>
      </trkpt>
      <trkpt lat="45.61564" lon="4.53417">
        <ele>787</ele>
        <time>2012-04-09T11:19:44Z</time>
      </trkpt>
      <trkpt lat="45.61575" lon="4.53426">
        <ele>785</ele>
        <time>2012-04-09T11:19:55Z</time>
      </trkpt>
      <trkpt lat="45.6159" lon="4.53425">
        <ele>784</ele>
        <time>2012-04-09T11:20:07Z</time>
      </trkpt>
      <trkpt lat="45.61604" lon="4.53426">
        <ele>780</ele>
        <time>2012-04-09T11:20:15Z</time>
      </trkpt>
      <trkpt lat="45.61618" lon="4.53434">
        <ele>776</ele>
        <time>2012-04-09T11:20:22Z</time>
      </trkpt>
      <trkpt lat="45.61632" lon="4.53434">
        <ele>775</ele>
        <time>2012-04-09T11:20:27Z</time>
      </trkpt>
      <trkpt lat="45.61645" lon="4.5344">
        <ele>776</ele>
        <time>2012-04-09T11:20:33Z</time>
      </trkpt>
      <trkpt lat="45.61662" lon="4.53447">
        <ele>777</ele>
        <time>2012-04-09T11:20:39Z</time>
      </trkpt>
      <trkpt lat="45.61678" lon="4.53456">
        <ele>776</ele>
        <time>2012-04-09T11:20:44Z</time>
      </trkpt>
      <trkpt lat="45.61691" lon="4.53461">
        <ele>776</ele>
        <time>2012-04-09T11:20:48Z</time>
      </trkpt>
      <trkpt lat="45.61717" lon="4.53474">
        <ele>772</ele>
        <time>2012-04-09T11:20:57Z</time>
      </trkpt>
      <trkpt lat="45.61744" lon="4.5348">
        <ele>775</ele>
        <time>2012-04-09T11:21:05Z</time>
      </trkpt>
      <trkpt lat="45.61733" lon="4.53469">
        <ele>770</ele>
        <time>2012-04-09T11:21:29Z</time>
      </trkpt>
      <trkpt lat="45.61722" lon="4.5345">
        <ele>769</ele>
        <time>2012-04-09T11:21:35Z</time>
      </trkpt>
      <trkpt lat="45.61714" lon="4.53434">
        <ele>768</ele>
        <time>2012-04-09T11:21:40Z</time>
      </trkpt>
      <trkpt lat="45.61707" lon="4.53416">
        <ele>764</ele>
        <time>2012-04-09T11:21:46Z</time>
      </trkpt>
      <trkpt lat="45.61697" lon="4.53397">
        <ele>763</ele>
        <time>2012-04-09T11:21:52Z</time>
      </trkpt>
      <trkpt lat="45.61686" lon="4.53383">
        <ele>766</ele>
        <time>2012-04-09T11:21:59Z</time>
      </trkpt>
      <trkpt lat="45.61676" lon="4.53367">
        <ele>760</ele>
        <time>2012-04-09T11:22:12Z</time>
      </trkpt>
      <trkpt lat="45.61668" lon="4.53351">
        <ele>753</ele>
        <time>2012-04-09T11:22:18Z</time>
      </trkpt>
      <trkpt lat="45.61656" lon="4.53339">
        <ele>752</ele>
        <time>2012-04-09T11:22:25Z</time>
      </trkpt>
      <trkpt lat="45.61646" lon="4.53325">
        <ele>750</ele>
        <time>2012-04-09T11:22:38Z</time>
      </trkpt>
      <trkpt lat="45.61634" lon="4.53316">
        <ele>750</ele>
        <time>2012-04-09T11:22:48Z</time>
      </trkpt>
      <trkpt lat="45.61627" lon="4.53297">
        <ele>750</ele>
        <time>2012-04-09T11:22:55Z</time>
      </trkpt>
      <trkpt lat="45.61615" lon="4.53284">
        <ele>749</ele>
        <time>2012-04-09T11:23:02Z</time>
      </trkpt>
      <trkpt lat="45.61609" lon="4.53265">
        <ele>748</ele>
        <time>2012-04-09T11:23:08Z</time>
      </trkpt>
      <trkpt lat="45.61604" lon="4.53247">
        <ele>747</ele>
        <time>2012-04-09T11:23:14Z</time>
      </trkpt>
      <trkpt lat="45.61595" lon="4.53232">
        <ele>747</ele>
        <time>2012-04-09T11:23:23Z</time>
      </trkpt>
      <trkpt lat="45.61591" lon="4.53213">
        <ele>749</ele>
        <time>2012-04-09T11:23:36Z</time>
      </trkpt>
      <trkpt lat="45.61583" lon="4.53195">
        <ele>747</ele>
        <time>2012-04-09T11:23:46Z</time>
      </trkpt>
      <trkpt lat="45.61583" lon="4.53176">
        <ele>747</ele>
        <time>2012-04-09T11:24:12Z</time>
      </trkpt>
      <trkpt lat="45.61585" lon="4.53155">
        <ele>750</ele>
        <time>2012-04-09T11:24:22Z</time>
      </trkpt>
      <trkpt lat="45.61595" lon="4.53141">
        <ele>755</ele>
        <time>2012-04-09T11:24:31Z</time>
      </trkpt>
      <trkpt lat="45.616" lon="4.53123">
        <ele>755</ele>
        <time>2012-04-09T11:24:36Z</time>
      </trkpt>
      <trkpt lat="45.6161" lon="4.53108">
        <ele>754</ele>
        <time>2012-04-09T11:24:43Z</time>
      </trkpt>
      <trkpt lat="45.61615" lon="4.53088">
        <ele>752</ele>
        <time>2012-04-09T11:25:06Z</time>
      </trkpt>
      <trkpt lat="45.61624" lon="4.53073">
        <ele>756</ele>
        <time>2012-04-09T11:25:20Z</time>
      </trkpt>
      <trkpt lat="45.61639" lon="4.53077">
        <ele>758</ele>
        <time>2012-04-09T11:25:25Z</time>
      </trkpt>
      <trkpt lat="45.61653" lon="4.53078">
        <ele>761</ele>
        <time>2012-04-09T11:25:32Z</time>
      </trkpt>
      <trkpt lat="45.61666" lon="4.53069">
        <ele>760</ele>
        <time>2012-04-09T11:25:40Z</time>
      </trkpt>
      <trkpt lat="45.61676" lon="4.53056">
        <ele>761</ele>
        <time>2012-04-09T11:25:49Z</time>
      </trkpt>
      <trkpt lat="45.6169" lon="4.53059">
        <ele>762</ele>
        <time>2012-04-09T11:25:58Z</time>
      </trkpt>
      <trkpt lat="45.61705" lon="4.53056">
        <ele>758</ele>
        <time>2012-04-09T11:26:08Z</time>
      </trkpt>
      <trkpt lat="45.61717" lon="4.53044">
        <ele>756</ele>
        <time>2012-04-09T11:26:21Z</time>
      </trkpt>
      <trkpt lat="45.61727" lon="4.53032">
        <ele>755</ele>
        <time>2012-04-09T11:26:29Z</time>
      </trkpt>
      <trkpt lat="45.6174" lon="4.53021">
        <ele>756</ele>
        <time>2012-04-09T11:26:39Z</time>
      </trkpt>
      <trkpt lat="45.61752" lon="4.53011">
        <ele>754</ele>
        <time>2012-04-09T11:26:47Z</time>
      </trkpt>
      <trkpt lat="45.61766" lon="4.53001">
        <ele>755</ele>
        <time>2012-04-09T11:26:53Z</time>
      </trkpt>
      <trkpt lat="45.61769" lon="4.52981">
        <ele>756</ele>
        <time>2012-04-09T11:26:59Z</time>
      </trkpt>
      <trkpt lat="45.61781" lon="4.52971">
        <ele>747</ele>
        <time>2012-04-09T11:27:09Z</time>
      </trkpt>
      <trkpt lat="45.61806" lon="4.52999">
        <ele>746</ele>
        <time>2012-04-09T11:27:18Z</time>
      </trkpt>
      <trkpt lat="45.61818" lon="4.5301">
        <ele>742</ele>
        <time>2012-04-09T11:27:24Z</time>
      </trkpt>
      <trkpt lat="45.61832" lon="4.5302">
        <ele>742</ele>
        <time>2012-04-09T11:27:32Z</time>
      </trkpt>
      <trkpt lat="45.61844" lon="4.53009">
        <ele>740</ele>
        <time>2012-04-09T11:27:37Z</time>
      </trkpt>
      <trkpt lat="45.61854" lon="4.52994">
        <ele>739</ele>
        <time>2012-04-09T11:27:42Z</time>
      </trkpt>
      <trkpt lat="45.61863" lon="4.52979">
        <ele>736</ele>
        <time>2012-04-09T11:27:50Z</time>
      </trkpt>
      <trkpt lat="45.61878" lon="4.52972">
        <ele>735</ele>
        <time>2012-04-09T11:27:57Z</time>
      </trkpt>
      <trkpt lat="45.61891" lon="4.52959">
        <ele>734</ele>
        <time>2012-04-09T11:28:02Z</time>
      </trkpt>
      <trkpt lat="45.61904" lon="4.52957">
        <ele>731</ele>
        <time>2012-04-09T11:28:12Z</time>
      </trkpt>
      <trkpt lat="45.61914" lon="4.5294">
        <ele>732</ele>
        <time>2012-04-09T11:28:19Z</time>
      </trkpt>
      <trkpt lat="45.61908" lon="4.52922">
        <ele>727</ele>
        <time>2012-04-09T11:28:27Z</time>
      </trkpt>
      <trkpt lat="45.61899" lon="4.52907">
        <ele>725</ele>
        <time>2012-04-09T11:28:34Z</time>
      </trkpt>
      <trkpt lat="45.6189" lon="4.52891">
        <ele>723</ele>
        <time>2012-04-09T11:28:43Z</time>
      </trkpt>
      <trkpt lat="45.61876" lon="4.52884">
        <ele>721</ele>
        <time>2012-04-09T11:28:55Z</time>
      </trkpt>
      <trkpt lat="45.61868" lon="4.52866">
        <ele>719</ele>
        <time>2012-04-09T11:29:03Z</time>
      </trkpt>
      <trkpt lat="45.61861" lon="4.52849">
        <ele>717</ele>
        <time>2012-04-09T11:29:13Z</time>
      </trkpt>
      <trkpt lat="45.61853" lon="4.52831">
        <ele>719</ele>
        <time>2012-04-09T11:29:23Z</time>
      </trkpt>
      <trkpt lat="45.61848" lon="4.52813">
        <ele>719</ele>
        <time>2012-04-09T11:29:33Z</time>
      </trkpt>
      <trkpt lat="45.61848" lon="4.52792">
        <ele>721</ele>
        <time>2012-04-09T11:29:41Z</time>
      </trkpt>
      <trkpt lat="45.61843" lon="4.52771">
        <ele>716</ele>
        <time>2012-04-09T11:29:50Z</time>
      </trkpt>
      <trkpt lat="45.61836" lon="4.52753">
        <ele>713</ele>
        <time>2012-04-09T11:30:00Z</time>
      </trkpt>
      <trkpt lat="45.61833" lon="4.52733">
        <ele>710</ele>
        <time>2012-04-09T11:30:06Z</time>
      </trkpt>
      <trkpt lat="45.61828" lon="4.52714">
        <ele>711</ele>
        <time>2012-04-09T11:30:12Z</time>
      </trkpt>
      <trkpt lat="45.6182" lon="4.52697">
        <ele>710</ele>
        <time>2012-04-09T11:30:24Z</time>
      </trkpt>
      <trkpt lat="45.61814" lon="4.52678">
        <ele>707</ele>
        <time>2012-04-09T11:30:34Z</time>
      </trkpt>
      <trkpt lat="45.61812" lon="4.52658">
        <ele>708</ele>
        <time>2012-04-09T11:30:41Z</time>
      </trkpt>
      <trkpt lat="45.61812" lon="4.52636">
        <ele>709</ele>
        <time>2012-04-09T11:30:50Z</time>
      </trkpt>
      <trkpt lat="45.6181" lon="4.52616">
        <ele>710</ele>
        <time>2012-04-09T11:30:57Z</time>
      </trkpt>
      <trkpt lat="45.61806" lon="4.52597">
        <ele>704</ele>
        <time>2012-04-09T11:31:08Z</time>
      </trkpt>
      <trkpt lat="45.61803" lon="4.52578">
        <ele>706</ele>
        <time>2012-04-09T11:31:18Z</time>
      </trkpt>
      <trkpt lat="45.61793" lon="4.52566">
        <ele>705</ele>
        <time>2012-04-09T11:31:25Z</time>
      </trkpt>
      <trkpt lat="45.61788" lon="4.52546">
        <ele>701</ele>
        <time>2012-04-09T11:31:35Z</time>
      </trkpt>
      <trkpt lat="45.61789" lon="4.52526">
        <ele>698</ele>
        <time>2012-04-09T11:31:42Z</time>
      </trkpt>
      <trkpt lat="45.61783" lon="4.52507">
        <ele>699</ele>
        <time>2012-04-09T11:31:50Z</time>
      </trkpt>
      <trkpt lat="45.6177" lon="4.52473">
        <ele>701</ele>
        <time>2012-04-09T11:32:04Z</time>
      </trkpt>
      <trkpt lat="45.61762" lon="4.52454">
        <ele>695</ele>
        <time>2012-04-09T11:32:13Z</time>
      </trkpt>
      <trkpt lat="45.61753" lon="4.52439">
        <ele>693</ele>
        <time>2012-04-09T11:32:22Z</time>
      </trkpt>
      <trkpt lat="45.61742" lon="4.52426">
        <ele>693</ele>
        <time>2012-04-09T11:32:29Z</time>
      </trkpt>
      <trkpt lat="45.61727" lon="4.52423">
        <ele>695</ele>
        <time>2012-04-09T11:32:42Z</time>
      </trkpt>
      <trkpt lat="45.61714" lon="4.52416">
        <ele>694</ele>
        <time>2012-04-09T11:32:48Z</time>
      </trkpt>
      <trkpt lat="45.61706" lon="4.524">
        <ele>689</ele>
        <time>2012-04-09T11:32:55Z</time>
      </trkpt>
      <trkpt lat="45.61695" lon="4.52386">
        <ele>685</ele>
        <time>2012-04-09T11:33:03Z</time>
      </trkpt>
      <trkpt lat="45.61685" lon="4.52373">
        <ele>685</ele>
        <time>2012-04-09T11:33:11Z</time>
      </trkpt>
      <trkpt lat="45.61679" lon="4.52355">
        <ele>683</ele>
        <time>2012-04-09T11:33:19Z</time>
      </trkpt>
      <trkpt lat="45.61671" lon="4.52338">
        <ele>683</ele>
        <time>2012-04-09T11:33:30Z</time>
      </trkpt>
      <trkpt lat="45.61665" lon="4.52319">
        <ele>682</ele>
        <time>2012-04-09T11:33:40Z</time>
      </trkpt>
      <trkpt lat="45.61656" lon="4.523">
        <ele>681</ele>
        <time>2012-04-09T11:33:51Z</time>
      </trkpt>
      <trkpt lat="45.61653" lon="4.52281">
        <ele>682</ele>
        <time>2012-04-09T11:33:56Z</time>
      </trkpt>
      <trkpt lat="45.61653" lon="4.52261">
        <ele>682</ele>
        <time>2012-04-09T11:34:02Z</time>
      </trkpt>
      <trkpt lat="45.61652" lon="4.5224">
        <ele>680</ele>
        <time>2012-04-09T11:34:14Z</time>
      </trkpt>
      <trkpt lat="45.61642" lon="4.52224">
        <ele>677</ele>
        <time>2012-04-09T11:34:23Z</time>
      </trkpt>
      <trkpt lat="45.61637" lon="4.52206">
        <ele>676</ele>
        <time>2012-04-09T11:34:32Z</time>
      </trkpt>
      <trkpt lat="45.61638" lon="4.52184">
        <ele>681</ele>
        <time>2012-04-09T11:34:39Z</time>
      </trkpt>
      <trkpt lat="45.61634" lon="4.52164">
        <ele>681</ele>
        <time>2012-04-09T11:34:46Z</time>
      </trkpt>
      <trkpt lat="45.61635" lon="4.52145">
        <ele>683</ele>
        <time>2012-04-09T11:34:53Z</time>
      </trkpt>
      <trkpt lat="45.61633" lon="4.52125">
        <ele>679</ele>
        <time>2012-04-09T11:35:03Z</time>
      </trkpt>
      <trkpt lat="45.61628" lon="4.52106">
        <ele>679</ele>
        <time>2012-04-09T11:35:13Z</time>
      </trkpt>
      <trkpt lat="45.61627" lon="4.52086">
        <ele>680</ele>
        <time>2012-04-09T11:35:24Z</time>
      </trkpt>
      <trkpt lat="45.61634" lon="4.52067">
        <ele>680</ele>
        <time>2012-04-09T11:35:34Z</time>
      </trkpt>
      <trkpt lat="45.61639" lon="4.52048">
        <ele>681</ele>
        <time>2012-04-09T11:35:43Z</time>
      </trkpt>
      <trkpt lat="45.61636" lon="4.52028">
        <ele>683</ele>
        <time>2012-04-09T11:35:49Z</time>
      </trkpt>
      <trkpt lat="45.61641" lon="4.52007">
        <ele>679</ele>
        <time>2012-04-09T11:35:55Z</time>
      </trkpt>
      <trkpt lat="45.61638" lon="4.51987">
        <ele>679</ele>
        <time>2012-04-09T11:36:03Z</time>
      </trkpt>
      <trkpt lat="45.61637" lon="4.51968">
        <ele>675</ele>
        <time>2012-04-09T11:36:12Z</time>
      </trkpt>
      <trkpt lat="45.61639" lon="4.51949">
        <ele>672</ele>
        <time>2012-04-09T11:36:21Z</time>
      </trkpt>
      <trkpt lat="45.61645" lon="4.51927">
        <ele>675</ele>
        <time>2012-04-09T11:36:30Z</time>
      </trkpt>
      <trkpt lat="45.61645" lon="4.51907">
        <ele>673</ele>
        <time>2012-04-09T11:36:36Z</time>
      </trkpt>
      <trkpt lat="45.61649" lon="4.51888">
        <ele>673</ele>
        <time>2012-04-09T11:36:41Z</time>
      </trkpt>
      <trkpt lat="45.61649" lon="4.51865">
        <ele>671</ele>
        <time>2012-04-09T11:36:46Z</time>
      </trkpt>
      <trkpt lat="45.6165" lon="4.51844">
        <ele>669</ele>
        <time>2012-04-09T11:36:51Z</time>
      </trkpt>
      <trkpt lat="45.6164" lon="4.51829">
        <ele>661</ele>
        <time>2012-04-09T11:36:58Z</time>
      </trkpt>
      <trkpt lat="45.61648" lon="4.51811">
        <ele>655</ele>
        <time>2012-04-09T11:37:08Z</time>
      </trkpt>
      <trkpt lat="45.61663" lon="4.51812">
        <ele>654</ele>
        <time>2012-04-09T11:37:15Z</time>
      </trkpt>
      <trkpt lat="45.61676" lon="4.51817">
        <ele>661</ele>
        <time>2012-04-09T11:37:26Z</time>
      </trkpt>
      <trkpt lat="45.61691" lon="4.51816">
        <ele>667</ele>
        <time>2012-04-09T11:37:35Z</time>
      </trkpt>
      <trkpt lat="45.61705" lon="4.51821">
        <ele>667</ele>
        <time>2012-04-09T11:37:42Z</time>
      </trkpt>
      <trkpt lat="45.61719" lon="4.51828">
        <ele>668</ele>
        <time>2012-04-09T11:37:48Z</time>
      </trkpt>
      <trkpt lat="45.61733" lon="4.51828">
        <ele>667</ele>
        <time>2012-04-09T11:37:55Z</time>
      </trkpt>
      <trkpt lat="45.61746" lon="4.51835">
        <ele>663</ele>
        <time>2012-04-09T11:38:05Z</time>
      </trkpt>
      <trkpt lat="45.61756" lon="4.51848">
        <ele>653</ele>
        <time>2012-04-09T11:38:25Z</time>
      </trkpt>
      <trkpt lat="45.61762" lon="4.51866">
        <ele>648</ele>
        <time>2012-04-09T11:38:34Z</time>
      </trkpt>
      <trkpt lat="45.61771" lon="4.51883">
        <ele>642</ele>
        <time>2012-04-09T11:38:43Z</time>
      </trkpt>
      <trkpt lat="45.61778" lon="4.51901">
        <ele>641</ele>
        <time>2012-04-09T11:38:53Z</time>
      </trkpt>
      <trkpt lat="45.61791" lon="4.51909">
        <ele>636</ele>
        <time>2012-04-09T11:39:02Z</time>
      </trkpt>
      <trkpt lat="45.618" lon="4.51925">
        <ele>635</ele>
        <time>2012-04-09T11:39:14Z</time>
      </trkpt>
      <trkpt lat="45.61812" lon="4.51937">
        <ele>635</ele>
        <time>2012-04-09T11:39:28Z</time>
      </trkpt>
      <trkpt lat="45.61825" lon="4.51944">
        <ele>632</ele>
        <time>2012-04-09T11:39:34Z</time>
      </trkpt>
      <trkpt lat="45.61839" lon="4.51947">
        <ele>633</ele>
        <time>2012-04-09T11:39:41Z</time>
      </trkpt>
      <trkpt lat="45.61853" lon="4.51953">
        <ele>634</ele>
        <time>2012-04-09T11:39:49Z</time>
      </trkpt>
      <trkpt lat="45.61864" lon="4.5194">
        <ele>632</ele>
        <time>2012-04-09T11:39:55Z</time>
      </trkpt>
      <trkpt lat="45.61874" lon="4.51924">
        <ele>629</ele>
        <time>2012-04-09T11:40:04Z</time>
      </trkpt>
      <trkpt lat="45.6188" lon="4.51907">
        <ele>628</ele>
        <time>2012-04-09T11:40:10Z</time>
      </trkpt>
      <trkpt lat="45.61888" lon="4.51889">
        <ele>624</ele>
        <time>2012-04-09T11:40:16Z</time>
      </trkpt>
      <trkpt lat="45.619" lon="4.51877">
        <ele>622</ele>
        <time>2012-04-09T11:40:23Z</time>
      </trkpt>
      <trkpt lat="45.61912" lon="4.51869">
        <ele>623</ele>
        <time>2012-04-09T11:40:39Z</time>
      </trkpt>
      <trkpt lat="45.61913" lon="4.51848">
        <ele>622</ele>
        <time>2012-04-09T11:40:47Z</time>
      </trkpt>
      <trkpt lat="45.61912" lon="4.51829">
        <ele>619</ele>
        <time>2012-04-09T11:40:55Z</time>
      </trkpt>
      <trkpt lat="45.61921" lon="4.51813">
        <ele>619</ele>
        <time>2012-04-09T11:41:04Z</time>
      </trkpt>
      <trkpt lat="45.6193" lon="4.51797">
        <ele>622</ele>
        <time>2012-04-09T11:41:17Z</time>
      </trkpt>
      <trkpt lat="45.61939" lon="4.51781">
        <ele>625</ele>
        <time>2012-04-09T11:41:27Z</time>
      </trkpt>
      <trkpt lat="45.61946" lon="4.51765">
        <ele>620</ele>
        <time>2012-04-09T11:41:37Z</time>
      </trkpt>
      <trkpt lat="45.6196" lon="4.51763">
        <ele>617</ele>
        <time>2012-04-09T11:41:47Z</time>
      </trkpt>
      <trkpt lat="45.61973" lon="4.51773">
        <ele>616</ele>
        <time>2012-04-09T11:41:56Z</time>
      </trkpt>
      <trkpt lat="45.61986" lon="4.51784">
        <ele>617</ele>
        <time>2012-04-09T11:42:01Z</time>
      </trkpt>
      <trkpt lat="45.62" lon="4.51794">
        <ele>616</ele>
        <time>2012-04-09T11:42:08Z</time>
      </trkpt>
      <trkpt lat="45.62014" lon="4.51799">
        <ele>616</ele>
        <time>2012-04-09T11:42:15Z</time>
      </trkpt>
      <trkpt lat="45.62028" lon="4.51791">
        <ele>613</ele>
        <time>2012-04-09T11:42:26Z</time>
      </trkpt>
      <trkpt lat="45.62042" lon="4.51783">
        <ele>613</ele>
        <time>2012-04-09T11:42:33Z</time>
      </trkpt>
      <trkpt lat="45.62055" lon="4.51779">
        <ele>614</ele>
        <time>2012-04-09T11:42:43Z</time>
      </trkpt>
      <trkpt lat="45.6207" lon="4.51781">
        <ele>614</ele>
        <time>2012-04-09T11:42:50Z</time>
      </trkpt>
      <trkpt lat="45.62084" lon="4.51779">
        <ele>617</ele>
        <time>2012-04-09T11:42:56Z</time>
      </trkpt>
      <trkpt lat="45.62099" lon="4.51776">
        <ele>618</ele>
        <time>2012-04-09T11:43:02Z</time>
      </trkpt>
      <trkpt lat="45.62112" lon="4.51776">
        <ele>620</ele>
        <time>2012-04-09T11:43:07Z</time>
      </trkpt>
      <trkpt lat="45.62126" lon="4.51765">
        <ele>617</ele>
        <time>2012-04-09T11:43:14Z</time>
      </trkpt>
      <trkpt lat="45.62139" lon="4.51759">
        <ele>613</ele>
        <time>2012-04-09T11:43:21Z</time>
      </trkpt>
      <trkpt lat="45.62154" lon="4.51759">
        <ele>610</ele>
        <time>2012-04-09T11:43:28Z</time>
      </trkpt>
      <trkpt lat="45.62169" lon="4.51754">
        <ele>605</ele>
        <time>2012-04-09T11:43:34Z</time>
      </trkpt>
      <trkpt lat="45.62181" lon="4.51746">
        <ele>603</ele>
        <time>2012-04-09T11:43:41Z</time>
      </trkpt>
      <trkpt lat="45.62194" lon="4.51732">
        <ele>601</ele>
        <time>2012-04-09T11:43:49Z</time>
      </trkpt>
      <trkpt lat="45.62203" lon="4.51718">
        <ele>596</ele>
        <time>2012-04-09T11:43:59Z</time>
      </trkpt>
      <trkpt lat="45.62217" lon="4.51722">
        <ele>593</ele>
        <time>2012-04-09T11:44:04Z</time>
      </trkpt>
      <trkpt lat="45.62232" lon="4.5173">
        <ele>591</ele>
        <time>2012-04-09T11:44:10Z</time>
      </trkpt>
      <trkpt lat="45.62245" lon="4.51735">
        <ele>588</ele>
        <time>2012-04-09T11:44:15Z</time>
      </trkpt>
      <trkpt lat="45.62261" lon="4.51732">
        <ele>586</ele>
        <time>2012-04-09T11:44:22Z</time>
      </trkpt>
      <trkpt lat="45.62274" lon="4.51721">
        <ele>584</ele>
        <time>2012-04-09T11:44:28Z</time>
      </trkpt>
      <trkpt lat="45.62285" lon="4.51711">
        <ele>583</ele>
        <time>2012-04-09T11:44:35Z</time>
      </trkpt>
      <trkpt lat="45.62296" lon="4.51698">
        <ele>579</ele>
        <time>2012-04-09T11:44:47Z</time>
      </trkpt>
      <trkpt lat="45.62309" lon="4.51692">
        <ele>573</ele>
        <time>2012-04-09T11:44:56Z</time>
      </trkpt>
      <trkpt lat="45.62315" lon="4.51675">
        <ele>560</ele>
        <time>2012-04-09T11:45:13Z</time>
      </trkpt>
      <trkpt lat="45.62325" lon="4.5166">
        <ele>558</ele>
        <time>2012-04-09T11:45:38Z</time>
      </trkpt>
      <trkpt lat="45.62332" lon="4.51642">
        <ele>560</ele>
        <time>2012-04-09T11:45:46Z</time>
      </trkpt>
      <trkpt lat="45.62343" lon="4.51628">
        <ele>564</ele>
        <time>2012-04-09T11:46:00Z</time>
      </trkpt>
      <trkpt lat="45.62358" lon="4.51626">
        <ele>565</ele>
        <time>2012-04-09T11:46:11Z</time>
      </trkpt>
      <trkpt lat="45.62372" lon="4.51622">
        <ele>564</ele>
        <time>2012-04-09T11:46:21Z</time>
      </trkpt>
      <trkpt lat="45.6238" lon="4.51606">
        <ele>561</ele>
        <time>2012-04-09T11:46:29Z</time>
      </trkpt>
      <trkpt lat="45.62388" lon="4.5159">
        <ele>563</ele>
        <time>2012-04-09T11:46:39Z</time>
      </trkpt>
      <trkpt lat="45.624" lon="4.51581">
        <ele>560</ele>
        <time>2012-04-09T11:46:50Z</time>
      </trkpt>
      <trkpt lat="45.62412" lon="4.51564">
        <ele>563</ele>
        <time>2012-04-09T11:46:59Z</time>
      </trkpt>
      <trkpt lat="45.62422" lon="4.51552">
        <ele>566</ele>
        <time>2012-04-09T11:47:09Z</time>
      </trkpt>
      <trkpt lat="45.62425" lon="4.51532">
        <ele>566</ele>
        <time>2012-04-09T11:47:20Z</time>
      </trkpt>
      <trkpt lat="45.62434" lon="4.51517">
        <ele>571</ele>
        <time>2012-04-09T11:47:38Z</time>
      </trkpt>
      <trkpt lat="45.62448" lon="4.51506">
        <ele>570</ele>
        <time>2012-04-09T11:47:53Z</time>
      </trkpt>
      <trkpt lat="45.62454" lon="4.51488">
        <ele>572</ele>
        <time>2012-04-09T11:48:02Z</time>
      </trkpt>
      <trkpt lat="45.62461" lon="4.51472">
        <ele>567</ele>
        <time>2012-04-09T11:48:16Z</time>
      </trkpt>
      <trkpt lat="45.62464" lon="4.51451">
        <ele>571</ele>
        <time>2012-04-09T11:48:26Z</time>
      </trkpt>
      <trkpt lat="45.62472" lon="4.51436">
        <ele>567</ele>
        <time>2012-04-09T11:48:39Z</time>
      </trkpt>
      <trkpt lat="45.6248" lon="4.51419">
        <ele>571</ele>
        <time>2012-04-09T11:48:52Z</time>
      </trkpt>
      <trkpt lat="45.62477" lon="4.51399">
        <ele>571</ele>
        <time>2012-04-09T11:49:06Z</time>
      </trkpt>
      <trkpt lat="45.62483" lon="4.51381">
        <ele>566</ele>
        <time>2012-04-09T11:49:18Z</time>
      </trkpt>
      <trkpt lat="45.62492" lon="4.51364">
        <ele>565</ele>
        <time>2012-04-09T11:49:27Z</time>
      </trkpt>
      <trkpt lat="45.62499" lon="4.51347">
        <ele>564</ele>
        <time>2012-04-09T11:49:36Z</time>
      </trkpt>
      <trkpt lat="45.62507" lon="4.51331">
        <ele>564</ele>
        <time>2012-04-09T11:49:43Z</time>
      </trkpt>
      <trkpt lat="45.6251" lon="4.51311">
        <ele>562</ele>
        <time>2012-04-09T11:49:52Z</time>
      </trkpt>
      <trkpt lat="45.62504" lon="4.51292">
        <ele>560</ele>
        <time>2012-04-09T11:50:03Z</time>
      </trkpt>
      <trkpt lat="45.625" lon="4.51273">
        <ele>559</ele>
        <time>2012-04-09T11:50:14Z</time>
      </trkpt>
      <trkpt lat="45.62496" lon="4.51254">
        <ele>560</ele>
        <time>2012-04-09T11:50:24Z</time>
      </trkpt>
      <trkpt lat="45.62483" lon="4.51245">
        <ele>562</ele>
        <time>2012-04-09T11:50:32Z</time>
      </trkpt>
      <trkpt lat="45.6247" lon="4.51237">
        <ele>566</ele>
        <time>2012-04-09T11:50:45Z</time>
      </trkpt>
      <trkpt lat="45.6246" lon="4.51221">
        <ele>565</ele>
        <time>2012-04-09T11:50:51Z</time>
      </trkpt>
      <trkpt lat="45.62445" lon="4.5122">
        <ele>564</ele>
        <time>2012-04-09T11:50:59Z</time>
      </trkpt>
      <trkpt lat="45.62436" lon="4.51206">
        <ele>564</ele>
        <time>2012-04-09T11:51:10Z</time>
      </trkpt>
      <trkpt lat="45.62424" lon="4.51197">
        <ele>567</ele>
        <time>2012-04-09T11:51:18Z</time>
      </trkpt>
      <trkpt lat="45.62412" lon="4.51183">
        <ele>567</ele>
        <time>2012-04-09T11:51:26Z</time>
      </trkpt>
      <trkpt lat="45.624" lon="4.51174">
        <ele>562</ele>
        <time>2012-04-09T11:51:43Z</time>
      </trkpt>
      <trkpt lat="45.62392" lon="4.51157">
        <ele>569</ele>
        <time>2012-04-09T11:51:49Z</time>
      </trkpt>
      <trkpt lat="45.62383" lon="4.5114">
        <ele>568</ele>
        <time>2012-04-09T11:51:53Z</time>
      </trkpt>
      <trkpt lat="45.6237" lon="4.51151">
        <ele>568</ele>
        <time>2012-04-09T11:52:11Z</time>
      </trkpt>
      <trkpt lat="45.62356" lon="4.51151">
        <ele>568</ele>
        <time>2012-04-09T11:52:28Z</time>
      </trkpt>
      <trkpt lat="45.62343" lon="4.51142">
        <ele>567</ele>
        <time>2012-04-09T11:52:41Z</time>
      </trkpt>
      <trkpt lat="45.6233" lon="4.51133">
        <ele>570</ele>
        <time>2012-04-09T11:52:50Z</time>
      </trkpt>
      <trkpt lat="45.62318" lon="4.51122">
        <ele>575</ele>
        <time>2012-04-09T11:52:57Z</time>
      </trkpt>
      <trkpt lat="45.62306" lon="4.51112">
        <ele>577</ele>
        <time>2012-04-09T11:53:02Z</time>
      </trkpt>
      <trkpt lat="45.62295" lon="4.51099">
        <ele>589</ele>
        <time>2012-04-09T11:53:21Z</time>
      </trkpt>
      <trkpt lat="45.62285" lon="4.51084">
        <ele>586</ele>
        <time>2012-04-09T11:53:40Z</time>
      </trkpt>
      <trkpt lat="45.6228" lon="4.51066">
        <ele>584</ele>
        <time>2012-04-09T11:53:54Z</time>
      </trkpt>
      <trkpt lat="45.62266" lon="4.51064">
        <ele>585</ele>
        <time>2012-04-09T11:54:25Z</time>
      </trkpt>
      <trkpt lat="45.62254" lon="4.51073">
        <ele>584</ele>
        <time>2012-04-09T11:54:38Z</time>
      </trkpt>
      <trkpt lat="45.62239" lon="4.51072">
        <ele>586</ele>
        <time>2012-04-09T11:54:54Z</time>
      </trkpt>
      <trkpt lat="45.62225" lon="4.51069">
        <ele>588</ele>
        <time>2012-04-09T11:55:12Z</time>
      </trkpt>
      <trkpt lat="45.6221" lon="4.51068">
        <ele>596</ele>
        <time>2012-04-09T11:55:33Z</time>
      </trkpt>
      <trkpt lat="45.622" lon="4.51055">
        <ele>599</ele>
        <time>2012-04-09T11:55:48Z</time>
      </trkpt>
      <trkpt lat="45.62189" lon="4.51043">
        <ele>603</ele>
        <time>2012-04-09T11:56:01Z</time>
      </trkpt>
      <trkpt lat="45.62174" lon="4.51043">
        <ele>611</ele>
        <time>2012-04-09T11:56:15Z</time>
      </trkpt>
      <trkpt lat="45.62165" lon="4.51028">
        <ele>613</ele>
        <time>2012-04-09T11:56:25Z</time>
      </trkpt>
      <trkpt lat="45.62153" lon="4.51018">
        <ele>614</ele>
        <time>2012-04-09T11:56:34Z</time>
      </trkpt>
      <trkpt lat="45.62142" lon="4.51003">
        <ele>621</ele>
        <time>2012-04-09T11:56:48Z</time>
      </trkpt>
      <trkpt lat="45.62131" lon="4.50989">
        <ele>623</ele>
        <time>2012-04-09T11:56:58Z</time>
      </trkpt>
      <trkpt lat="45.6212" lon="4.50976">
        <ele>626</ele>
        <time>2012-04-09T11:57:13Z</time>
      </trkpt>
      <trkpt lat="45.62108" lon="4.50968">
        <ele>625</ele>
        <time>2012-04-09T11:57:21Z</time>
      </trkpt>
      <trkpt lat="45.62094" lon="4.50971">
        <ele>624</ele>
        <time>2012-04-09T11:57:32Z</time>
      </trkpt>
      <trkpt lat="45.62086" lon="4.50954">
        <ele>623</ele>
        <time>2012-04-09T11:57:47Z</time>
      </trkpt>
      <trkpt lat="45.62077" lon="4.50939">
        <ele>619</ele>
        <time>2012-04-09T11:58:01Z</time>
      </trkpt>
      <trkpt lat="45.62068" lon="4.50922">
        <ele>622</ele>
        <time>2012-04-09T11:58:11Z</time>
      </trkpt>
      <trkpt lat="45.62057" lon="4.5091">
        <ele>624</ele>
        <time>2012-04-09T11:58:19Z</time>
      </trkpt>
      <trkpt lat="45.62046" lon="4.50897">
        <ele>623</ele>
        <time>2012-04-09T11:58:32Z</time>
      </trkpt>
      <trkpt lat="45.62038" lon="4.5088">
        <ele>624</ele>
        <time>2012-04-09T11:58:47Z</time>
      </trkpt>
      <trkpt lat="45.62026" lon="4.50868">
        <ele>623</ele>
        <time>2012-04-09T11:58:58Z</time>
      </trkpt>
      <trkpt lat="45.62018" lon="4.50852">
        <ele>629</ele>
        <time>2012-04-09T11:59:07Z</time>
      </trkpt>
      <trkpt lat="45.62005" lon="4.5086">
        <ele>628</ele>
        <time>2012-04-09T11:59:20Z</time>
      </trkpt>
      <trkpt lat="45.61992" lon="4.50868">
        <ele>634</ele>
        <time>2012-04-09T11:59:31Z</time>
      </trkpt>
      <trkpt lat="45.61978" lon="4.50868">
        <ele>639</ele>
        <time>2012-04-09T11:59:41Z</time>
      </trkpt>
      <trkpt lat="45.61966" lon="4.50877">
        <ele>637</ele>
        <time>2012-04-09T11:59:51Z</time>
      </trkpt>
      <trkpt lat="45.61959" lon="4.50898">
        <ele>646</ele>
        <time>2012-04-09T12:00:05Z</time>
      </trkpt>
      <trkpt lat="45.61947" lon="4.50908">
        <ele>645</ele>
        <time>2012-04-09T12:00:13Z</time>
      </trkpt>
      <trkpt lat="45.61935" lon="4.50916">
        <ele>646</ele>
        <time>2012-04-09T12:00:23Z</time>
      </trkpt>
      <trkpt lat="45.61922" lon="4.50924">
        <ele>646</ele>
        <time>2012-04-09T12:00:32Z</time>
      </trkpt>
      <trkpt lat="45.61908" lon="4.50918">
        <ele>651</ele>
        <time>2012-04-09T12:00:43Z</time>
      </trkpt>
      <trkpt lat="45.61896" lon="4.50926">
        <ele>653</ele>
        <time>2012-04-09T12:00:55Z</time>
      </trkpt>
      <trkpt lat="45.61883" lon="4.50934">
        <ele>651</ele>
        <time>2012-04-09T12:01:07Z</time>
      </trkpt>
      <trkpt lat="45.61869" lon="4.5094">
        <ele>646</ele>
        <time>2012-04-09T12:01:26Z</time>
      </trkpt>
      <trkpt lat="45.61857" lon="4.5095">
        <ele>643</ele>
        <time>2012-04-09T12:01:41Z</time>
      </trkpt>
      <trkpt lat="45.61848" lon="4.50964">
        <ele>648</ele>
        <time>2012-04-09T12:01:52Z</time>
      </trkpt>
      <trkpt lat="45.61834" lon="4.50968">
        <ele>648</ele>
        <time>2012-04-09T12:02:02Z</time>
      </trkpt>
      <trkpt lat="45.6182" lon="4.5097">
        <ele>651</ele>
        <time>2012-04-09T12:02:11Z</time>
      </trkpt>
      <trkpt lat="45.61807" lon="4.50976">
        <ele>658</ele>
        <time>2012-04-09T12:02:23Z</time>
      </trkpt>
      <trkpt lat="45.61794" lon="4.50984">
        <ele>664</ele>
        <time>2012-04-09T12:02:39Z</time>
      </trkpt>
      <trkpt lat="45.6178" lon="4.5099">
        <ele>665</ele>
        <time>2012-04-09T12:02:53Z</time>
      </trkpt>
      <trkpt lat="45.61766" lon="4.50995">
        <ele>670</ele>
        <time>2012-04-09T12:03:03Z</time>
      </trkpt>
      <trkpt lat="45.61752" lon="4.50999">
        <ele>673</ele>
        <time>2012-04-09T12:03:19Z</time>
      </trkpt>
      <trkpt lat="45.61738" lon="4.50999">
        <ele>677</ele>
        <time>2012-04-09T12:03:29Z</time>
      </trkpt>
      <trkpt lat="45.61726" lon="4.50989">
        <ele>679</ele>
        <time>2012-04-09T12:03:36Z</time>
      </trkpt>
      <trkpt lat="45.61714" lon="4.50999">
        <ele>675</ele>
        <time>2012-04-09T12:03:49Z</time>
      </trkpt>
      <trkpt lat="45.617" lon="4.50995">
        <ele>673</ele>
        <time>2012-04-09T12:03:58Z</time>
      </trkpt>
      <trkpt lat="45.61688" lon="4.51004">
        <ele>664</ele>
        <time>2012-04-09T12:04:16Z</time>
      </trkpt>
      <trkpt lat="45.61673" lon="4.51002">
        <ele>667</ele>
        <time>2012-04-09T12:04:27Z</time>
      </trkpt>
      <trkpt lat="45.6166" lon="4.50999">
        <ele>672</ele>
        <time>2012-04-09T12:04:38Z</time>
      </trkpt>
      <trkpt lat="45.61645" lon="4.51003">
        <ele>665</ele>
        <time>2012-04-09T12:04:55Z</time>
      </trkpt>
      <trkpt lat="45.61632" lon="4.50999">
        <ele>672</ele>
        <time>2012-04-09T12:05:05Z</time>
      </trkpt>
      <trkpt lat="45.61619" lon="4.50998">
        <ele>675</ele>
        <time>2012-04-09T12:05:14Z</time>
      </trkpt>
      <trkpt lat="45.61609" lon="4.51011">
        <ele>679</ele>
        <time>2012-04-09T12:05:25Z</time>
      </trkpt>
      <trkpt lat="45.61595" lon="4.51014">
        <ele>690</ele>
        <time>2012-04-09T12:05:34Z</time>
      </trkpt>
      <trkpt lat="45.61582" lon="4.51022">
        <ele>700</ele>
        <time>2012-04-09T12:05:48Z</time>
      </trkpt>
      <trkpt lat="45.6157" lon="4.51031">
        <ele>701</ele>
        <time>2012-04-09T12:06:02Z</time>
      </trkpt>
      <trkpt lat="45.61556" lon="4.51031">
        <ele>693</ele>
        <time>2012-04-09T12:06:19Z</time>
      </trkpt>
      <trkpt lat="45.61557" lon="4.51012">
        <ele>695</ele>
        <time>2012-04-09T12:06:28Z</time>
      </trkpt>
      <trkpt lat="45.61552" lon="4.50993">
        <ele>693</ele>
        <time>2012-04-09T12:06:41Z</time>
      </trkpt>
      <trkpt lat="45.6155" lon="4.50973">
        <ele>691</ele>
        <time>2012-04-09T12:06:49Z</time>
      </trkpt>
      <trkpt lat="45.61549" lon="4.50954">
        <ele>690</ele>
        <time>2012-04-09T12:06:57Z</time>
      </trkpt>
      <trkpt lat="45.61545" lon="4.50935">
        <ele>689</ele>
        <time>2012-04-09T12:07:05Z</time>
      </trkpt>
      <trkpt lat="45.61537" lon="4.50919">
        <ele>688</ele>
        <time>2012-04-09T12:07:15Z</time>
      </trkpt>
      <trkpt lat="45.61529" lon="4.50902">
        <ele>686</ele>
        <time>2012-04-09T12:07:24Z</time>
      </trkpt>
      <trkpt lat="45.61524" lon="4.50882">
        <ele>685</ele>
        <time>2012-04-09T12:07:36Z</time>
      </trkpt>
      <trkpt lat="45.61519" lon="4.50864">
        <ele>682</ele>
        <time>2012-04-09T12:07:49Z</time>
      </trkpt>
      <trkpt lat="45.61512" lon="4.50846">
        <ele>682</ele>
        <time>2012-04-09T12:07:57Z</time>
      </trkpt>
      <trkpt lat="45.61506" lon="4.50827">
        <ele>678</ele>
        <time>2012-04-09T12:08:05Z</time>
      </trkpt>
      <trkpt lat="45.61505" lon="4.50808">
        <ele>678</ele>
        <time>2012-04-09T12:08:16Z</time>
      </trkpt>
      <trkpt lat="45.61498" lon="4.5079">
        <ele>681</ele>
        <time>2012-04-09T12:08:28Z</time>
      </trkpt>
      <trkpt lat="45.61497" lon="4.5077">
        <ele>678</ele>
        <time>2012-04-09T12:08:37Z</time>
      </trkpt>
      <trkpt lat="45.61494" lon="4.50749">
        <ele>679</ele>
        <time>2012-04-09T12:08:46Z</time>
      </trkpt>
      <trkpt lat="45.61493" lon="4.50727">
        <ele>676</ele>
        <time>2012-04-09T12:08:52Z</time>
      </trkpt>
      <trkpt lat="45.6149" lon="4.50706">
        <ele>674</ele>
        <time>2012-04-09T12:09:00Z</time>
      </trkpt>
      <trkpt lat="45.61481" lon="4.5069">
        <ele>670</ele>
        <time>2012-04-09T12:09:10Z</time>
      </trkpt>
      <trkpt lat="45.61478" lon="4.50669">
        <ele>670</ele>
        <time>2012-04-09T12:09:16Z</time>
      </trkpt>
      <trkpt lat="45.61476" lon="4.5065">
        <ele>671</ele>
        <time>2012-04-09T12:09:22Z</time>
      </trkpt>
      <trkpt lat="45.61473" lon="4.5063">
        <ele>669</ele>
        <time>2012-04-09T12:09:29Z</time>
      </trkpt>
      <trkpt lat="45.61471" lon="4.50609">
        <ele>670</ele>
        <time>2012-04-09T12:09:38Z</time>
      </trkpt>
      <trkpt lat="45.61469" lon="4.50588">
        <ele>672</ele>
        <time>2012-04-09T12:09:46Z</time>
      </trkpt>
      <trkpt lat="45.61471" lon="4.50569">
        <ele>675</ele>
        <time>2012-04-09T12:09:55Z</time>
      </trkpt>
      <trkpt lat="45.61471" lon="4.50549">
        <ele>670</ele>
        <time>2012-04-09T12:10:07Z</time>
      </trkpt>
      <trkpt lat="45.61471" lon="4.5053">
        <ele>663</ele>
        <time>2012-04-09T12:10:17Z</time>
      </trkpt>
      <trkpt lat="45.61471" lon="4.5053">
        <ele>669.2</ele>
        <time>2012-04-09T12:10:51Z</time>
      </trkpt>
    </trkseg>
  </trk>
</gpx>